<gpx creator="Cyclotour.ca" version="1.1" xmlns:gpsies="http://www.gpsies.com/GPX/1/0" xmlns:xsi="http://www.w3.org/2001/XMLSchema-instance" xmlns="http://www.topografix.com/GPX/1/1" xsi:schemaLocation="http://www.topografix.com/GPX/1/1 http://www.topografix.com/GPX/1/1/gpx.xsd http://www.gpsies.com/GPX/1/0 http://www.gpsies.com/gpsies.xsd">
<trk>
<name>Bécancour-Nicolet</name>
<trkseg>
<trkpt lat="46.333260000" lon="-72.514550000">
<ele>0</ele>
<time>2026-09-04T06:33:45Z</time>
</trkpt>
<trkpt lat="46.333130000" lon="-72.514410000">
<ele>0</ele>
<time>2026-09-04T06:33:46Z</time>
</trkpt>
<trkpt lat="46.332390000" lon="-72.513670000">
<ele>0</ele>
<time>2026-09-04T06:33:47Z</time>
</trkpt>
<trkpt lat="46.331940000" lon="-72.513300000">
<ele>0</ele>
<time>2026-09-04T06:33:48Z</time>
</trkpt>
<trkpt lat="46.331820000" lon="-72.513210000">
<ele>0</ele>
<time>2026-09-04T06:33:49Z</time>
</trkpt>
<trkpt lat="46.331820000" lon="-72.513210000">
<ele>0</ele>
<time>2026-09-04T06:33:50Z</time>
</trkpt>
<trkpt lat="46.331700000" lon="-72.513130000">
<ele>0</ele>
<time>2026-09-04T06:33:51Z</time>
</trkpt>
<trkpt lat="46.331600000" lon="-72.513010000">
<ele>0</ele>
<time>2026-09-04T06:33:52Z</time>
</trkpt>
<trkpt lat="46.331560000" lon="-72.512880000">
<ele>0</ele>
<time>2026-09-04T06:33:53Z</time>
</trkpt>
<trkpt lat="46.332200000" lon="-72.512660000">
<ele>0</ele>
<time>2026-09-04T06:33:54Z</time>
</trkpt>
<trkpt lat="46.332360000" lon="-72.512590000">
<ele>0</ele>
<time>2026-09-04T06:33:55Z</time>
</trkpt>
<trkpt lat="46.332360000" lon="-72.512590000">
<ele>0</ele>
<time>2026-09-04T06:33:56Z</time>
</trkpt>
<trkpt lat="46.333050000" lon="-72.512310000">
<ele>0</ele>
<time>2026-09-04T06:33:57Z</time>
</trkpt>
<trkpt lat="46.333210000" lon="-72.512220000">
<ele>0</ele>
<time>2026-09-04T06:33:58Z</time>
</trkpt>
<trkpt lat="46.333460000" lon="-72.512010000">
<ele>0</ele>
<time>2026-09-04T06:33:59Z</time>
</trkpt>
<trkpt lat="46.333710000" lon="-72.511690000">
<ele>0</ele>
<time>2026-09-04T06:34:00Z</time>
</trkpt>
<trkpt lat="46.333840000" lon="-72.511500000">
<ele>0</ele>
<time>2026-09-04T06:34:01Z</time>
</trkpt>
<trkpt lat="46.334010000" lon="-72.511140000">
<ele>0</ele>
<time>2026-09-04T06:34:02Z</time>
</trkpt>
<trkpt lat="46.334070000" lon="-72.510980000">
<ele>0</ele>
<time>2026-09-04T06:34:03Z</time>
</trkpt>
<trkpt lat="46.334320000" lon="-72.510070000">
<ele>0</ele>
<time>2026-09-04T06:34:04Z</time>
</trkpt>
<trkpt lat="46.334880000" lon="-72.508880000">
<ele>0</ele>
<time>2026-09-04T06:34:05Z</time>
</trkpt>
<trkpt lat="46.335380000" lon="-72.507840000">
<ele>0</ele>
<time>2026-09-04T06:34:06Z</time>
</trkpt>
<trkpt lat="46.336150000" lon="-72.506320000">
<ele>0</ele>
<time>2026-09-04T06:34:07Z</time>
</trkpt>
<trkpt lat="46.336690000" lon="-72.505300000">
<ele>0</ele>
<time>2026-09-04T06:34:08Z</time>
</trkpt>
<trkpt lat="46.337050000" lon="-72.504750000">
<ele>0</ele>
<time>2026-09-04T06:34:09Z</time>
</trkpt>
<trkpt lat="46.337450000" lon="-72.504230000">
<ele>0</ele>
<time>2026-09-04T06:34:10Z</time>
</trkpt>
<trkpt lat="46.337700000" lon="-72.503900000">
<ele>0</ele>
<time>2026-09-04T06:34:11Z</time>
</trkpt>
<trkpt lat="46.337940000" lon="-72.503640000">
<ele>0</ele>
<time>2026-09-04T06:34:12Z</time>
</trkpt>
<trkpt lat="46.338360000" lon="-72.503230000">
<ele>0</ele>
<time>2026-09-04T06:34:13Z</time>
</trkpt>
<trkpt lat="46.339510000" lon="-72.502180000">
<ele>0</ele>
<time>2026-09-04T06:34:14Z</time>
</trkpt>
<trkpt lat="46.340660000" lon="-72.501180000">
<ele>0</ele>
<time>2026-09-04T06:34:15Z</time>
</trkpt>
<trkpt lat="46.341280000" lon="-72.500630000">
<ele>0</ele>
<time>2026-09-04T06:34:16Z</time>
</trkpt>
<trkpt lat="46.341630000" lon="-72.500270000">
<ele>0</ele>
<time>2026-09-04T06:34:17Z</time>
</trkpt>
<trkpt lat="46.342020000" lon="-72.499790000">
<ele>0</ele>
<time>2026-09-04T06:34:18Z</time>
</trkpt>
<trkpt lat="46.342370000" lon="-72.499290000">
<ele>0</ele>
<time>2026-09-04T06:34:19Z</time>
</trkpt>
<trkpt lat="46.342580000" lon="-72.498960000">
<ele>0</ele>
<time>2026-09-04T06:34:20Z</time>
</trkpt>
<trkpt lat="46.342830000" lon="-72.498460000">
<ele>0</ele>
<time>2026-09-04T06:34:21Z</time>
</trkpt>
<trkpt lat="46.343920000" lon="-72.496170000">
<ele>0</ele>
<time>2026-09-04T06:34:22Z</time>
</trkpt>
<trkpt lat="46.344690000" lon="-72.494530000">
<ele>0</ele>
<time>2026-09-04T06:34:23Z</time>
</trkpt>
<trkpt lat="46.346210000" lon="-72.491300000">
<ele>0</ele>
<time>2026-09-04T06:34:24Z</time>
</trkpt>
<trkpt lat="46.347770000" lon="-72.488120000">
<ele>0</ele>
<time>2026-09-04T06:34:25Z</time>
</trkpt>
<trkpt lat="46.347960000" lon="-72.487770000">
<ele>0</ele>
<time>2026-09-04T06:34:26Z</time>
</trkpt>
<trkpt lat="46.348900000" lon="-72.486200000">
<ele>0</ele>
<time>2026-09-04T06:34:27Z</time>
</trkpt>
<trkpt lat="46.349140000" lon="-72.485800000">
<ele>0</ele>
<time>2026-09-04T06:34:28Z</time>
</trkpt>
<trkpt lat="46.349590000" lon="-72.485170000">
<ele>0</ele>
<time>2026-09-04T06:34:29Z</time>
</trkpt>
<trkpt lat="46.350200000" lon="-72.484460000">
<ele>0</ele>
<time>2026-09-04T06:34:30Z</time>
</trkpt>
<trkpt lat="46.350400000" lon="-72.484250000">
<ele>0</ele>
<time>2026-09-04T06:34:31Z</time>
</trkpt>
<trkpt lat="46.351860000" lon="-72.482900000">
<ele>0</ele>
<time>2026-09-04T06:34:32Z</time>
</trkpt>
<trkpt lat="46.352620000" lon="-72.482060000">
<ele>0</ele>
<time>2026-09-04T06:34:33Z</time>
</trkpt>
<trkpt lat="46.353120000" lon="-72.481440000">
<ele>0</ele>
<time>2026-09-04T06:34:34Z</time>
</trkpt>
<trkpt lat="46.355010000" lon="-72.478690000">
<ele>0</ele>
<time>2026-09-04T06:34:35Z</time>
</trkpt>
<trkpt lat="46.356190000" lon="-72.476990000">
<ele>0</ele>
<time>2026-09-04T06:34:36Z</time>
</trkpt>
<trkpt lat="46.356800000" lon="-72.476000000">
<ele>0</ele>
<time>2026-09-04T06:34:37Z</time>
</trkpt>
<trkpt lat="46.357060000" lon="-72.475490000">
<ele>0</ele>
<time>2026-09-04T06:34:38Z</time>
</trkpt>
<trkpt lat="46.357800000" lon="-72.473950000">
<ele>0</ele>
<time>2026-09-04T06:34:39Z</time>
</trkpt>
<trkpt lat="46.359660000" lon="-72.469890000">
<ele>0</ele>
<time>2026-09-04T06:34:40Z</time>
</trkpt>
<trkpt lat="46.359790000" lon="-72.469550000">
<ele>0</ele>
<time>2026-09-04T06:34:41Z</time>
</trkpt>
<trkpt lat="46.359930000" lon="-72.469160000">
<ele>0</ele>
<time>2026-09-04T06:34:42Z</time>
</trkpt>
<trkpt lat="46.360080000" lon="-72.468530000">
<ele>0</ele>
<time>2026-09-04T06:34:43Z</time>
</trkpt>
<trkpt lat="46.360140000" lon="-72.467940000">
<ele>0</ele>
<time>2026-09-04T06:34:44Z</time>
</trkpt>
<trkpt lat="46.360150000" lon="-72.467210000">
<ele>0</ele>
<time>2026-09-04T06:34:45Z</time>
</trkpt>
<trkpt lat="46.360140000" lon="-72.466920000">
<ele>0</ele>
<time>2026-09-04T06:34:46Z</time>
</trkpt>
<trkpt lat="46.360070000" lon="-72.466390000">
<ele>0</ele>
<time>2026-09-04T06:34:47Z</time>
</trkpt>
<trkpt lat="46.359070000" lon="-72.460570000">
<ele>0</ele>
<time>2026-09-04T06:34:48Z</time>
</trkpt>
<trkpt lat="46.358410000" lon="-72.456960000">
<ele>0</ele>
<time>2026-09-04T06:34:49Z</time>
</trkpt>
<trkpt lat="46.358250000" lon="-72.455860000">
<ele>0</ele>
<time>2026-09-04T06:34:50Z</time>
</trkpt>
<trkpt lat="46.357000000" lon="-72.448810000">
<ele>0</ele>
<time>2026-09-04T06:34:51Z</time>
</trkpt>
<trkpt lat="46.356710000" lon="-72.447340000">
<ele>0</ele>
<time>2026-09-04T06:34:52Z</time>
</trkpt>
<trkpt lat="46.356480000" lon="-72.446430000">
<ele>0</ele>
<time>2026-09-04T06:34:53Z</time>
</trkpt>
<trkpt lat="46.356110000" lon="-72.445120000">
<ele>0</ele>
<time>2026-09-04T06:34:54Z</time>
</trkpt>
<trkpt lat="46.355170000" lon="-72.441800000">
<ele>0</ele>
<time>2026-09-04T06:34:55Z</time>
</trkpt>
<trkpt lat="46.354970000" lon="-72.441290000">
<ele>0</ele>
<time>2026-09-04T06:34:56Z</time>
</trkpt>
<trkpt lat="46.354810000" lon="-72.440950000">
<ele>0</ele>
<time>2026-09-04T06:34:57Z</time>
</trkpt>
<trkpt lat="46.354540000" lon="-72.440460000">
<ele>0</ele>
<time>2026-09-04T06:34:58Z</time>
</trkpt>
<trkpt lat="46.354330000" lon="-72.440130000">
<ele>0</ele>
<time>2026-09-04T06:34:59Z</time>
</trkpt>
<trkpt lat="46.353560000" lon="-72.439330000">
<ele>0</ele>
<time>2026-09-04T06:35:00Z</time>
</trkpt>
<trkpt lat="46.353330000" lon="-72.439120000">
<ele>0</ele>
<time>2026-09-04T06:35:01Z</time>
</trkpt>
<trkpt lat="46.352250000" lon="-72.438190000">
<ele>0</ele>
<time>2026-09-04T06:35:02Z</time>
</trkpt>
<trkpt lat="46.352060000" lon="-72.438000000">
<ele>0</ele>
<time>2026-09-04T06:35:03Z</time>
</trkpt>
<trkpt lat="46.351790000" lon="-72.437630000">
<ele>0</ele>
<time>2026-09-04T06:35:04Z</time>
</trkpt>
<trkpt lat="46.351610000" lon="-72.437290000">
<ele>0</ele>
<time>2026-09-04T06:35:05Z</time>
</trkpt>
<trkpt lat="46.351020000" lon="-72.435910000">
<ele>0</ele>
<time>2026-09-04T06:35:06Z</time>
</trkpt>
<trkpt lat="46.350620000" lon="-72.435000000">
<ele>0</ele>
<time>2026-09-04T06:35:07Z</time>
</trkpt>
<trkpt lat="46.350360000" lon="-72.435250000">
<ele>0</ele>
<time>2026-09-04T06:35:08Z</time>
</trkpt>
<trkpt lat="46.350360000" lon="-72.435250000">
<ele>0</ele>
<time>2026-09-04T06:35:09Z</time>
</trkpt>
<trkpt lat="46.350030000" lon="-72.435560000">
<ele>0</ele>
<time>2026-09-04T06:35:10Z</time>
</trkpt>
<trkpt lat="46.349820000" lon="-72.435710000">
<ele>0</ele>
<time>2026-09-04T06:35:11Z</time>
</trkpt>
<trkpt lat="46.349390000" lon="-72.436030000">
<ele>0</ele>
<time>2026-09-04T06:35:12Z</time>
</trkpt>
<trkpt lat="46.349150000" lon="-72.436170000">
<ele>0</ele>
<time>2026-09-04T06:35:13Z</time>
</trkpt>
<trkpt lat="46.348900000" lon="-72.436270000">
<ele>0</ele>
<time>2026-09-04T06:35:14Z</time>
</trkpt>
<trkpt lat="46.348230000" lon="-72.436500000">
<ele>0</ele>
<time>2026-09-04T06:35:15Z</time>
</trkpt>
<trkpt lat="46.346620000" lon="-72.437010000">
<ele>0</ele>
<time>2026-09-04T06:35:16Z</time>
</trkpt>
<trkpt lat="46.346620000" lon="-72.437010000">
<ele>0</ele>
<time>2026-09-04T06:35:17Z</time>
</trkpt>
<trkpt lat="46.346110000" lon="-72.437170000">
<ele>0</ele>
<time>2026-09-04T06:35:18Z</time>
</trkpt>
<trkpt lat="46.345750000" lon="-72.437220000">
<ele>0</ele>
<time>2026-09-04T06:35:19Z</time>
</trkpt>
<trkpt lat="46.345270000" lon="-72.437190000">
<ele>0</ele>
<time>2026-09-04T06:35:20Z</time>
</trkpt>
<trkpt lat="46.344340000" lon="-72.437040000">
<ele>0</ele>
<time>2026-09-04T06:35:21Z</time>
</trkpt>
<trkpt lat="46.343030000" lon="-72.436820000">
<ele>0</ele>
<time>2026-09-04T06:35:22Z</time>
</trkpt>
<trkpt lat="46.342490000" lon="-72.436740000">
<ele>0</ele>
<time>2026-09-04T06:35:23Z</time>
</trkpt>
<trkpt lat="46.341850000" lon="-72.436620000">
<ele>0</ele>
<time>2026-09-04T06:35:24Z</time>
</trkpt>
<trkpt lat="46.341310000" lon="-72.436580000">
<ele>0</ele>
<time>2026-09-04T06:35:25Z</time>
</trkpt>
<trkpt lat="46.340580000" lon="-72.436530000">
<ele>0</ele>
<time>2026-09-04T06:35:26Z</time>
</trkpt>
<trkpt lat="46.340230000" lon="-72.436470000">
<ele>0</ele>
<time>2026-09-04T06:35:27Z</time>
</trkpt>
<trkpt lat="46.339940000" lon="-72.436390000">
<ele>0</ele>
<time>2026-09-04T06:35:28Z</time>
</trkpt>
<trkpt lat="46.339670000" lon="-72.436300000">
<ele>0</ele>
<time>2026-09-04T06:35:29Z</time>
</trkpt>
<trkpt lat="46.339460000" lon="-72.436210000">
<ele>0</ele>
<time>2026-09-04T06:35:30Z</time>
</trkpt>
<trkpt lat="46.338980000" lon="-72.435950000">
<ele>0</ele>
<time>2026-09-04T06:35:31Z</time>
</trkpt>
<trkpt lat="46.338770000" lon="-72.435780000">
<ele>0</ele>
<time>2026-09-04T06:35:32Z</time>
</trkpt>
<trkpt lat="46.338690000" lon="-72.435700000">
<ele>0</ele>
<time>2026-09-04T06:35:33Z</time>
</trkpt>
<trkpt lat="46.338590000" lon="-72.435550000">
<ele>0</ele>
<time>2026-09-04T06:35:34Z</time>
</trkpt>
<trkpt lat="46.338480000" lon="-72.435420000">
<ele>0</ele>
<time>2026-09-04T06:35:35Z</time>
</trkpt>
<trkpt lat="46.338380000" lon="-72.435410000">
<ele>0</ele>
<time>2026-09-04T06:35:36Z</time>
</trkpt>
<trkpt lat="46.337440000" lon="-72.436240000">
<ele>0</ele>
<time>2026-09-04T06:35:37Z</time>
</trkpt>
<trkpt lat="46.337280000" lon="-72.436370000">
<ele>0</ele>
<time>2026-09-04T06:35:38Z</time>
</trkpt>
<trkpt lat="46.337110000" lon="-72.436470000">
<ele>0</ele>
<time>2026-09-04T06:35:39Z</time>
</trkpt>
<trkpt lat="46.336820000" lon="-72.436530000">
<ele>0</ele>
<time>2026-09-04T06:35:40Z</time>
</trkpt>
<trkpt lat="46.336570000" lon="-72.436450000">
<ele>0</ele>
<time>2026-09-04T06:35:41Z</time>
</trkpt>
<trkpt lat="46.336420000" lon="-72.436330000">
<ele>0</ele>
<time>2026-09-04T06:35:42Z</time>
</trkpt>
<trkpt lat="46.336050000" lon="-72.435910000">
<ele>0</ele>
<time>2026-09-04T06:35:43Z</time>
</trkpt>
<trkpt lat="46.335710000" lon="-72.435460000">
<ele>0</ele>
<time>2026-09-04T06:35:44Z</time>
</trkpt>
<trkpt lat="46.335270000" lon="-72.434930000">
<ele>0</ele>
<time>2026-09-04T06:35:45Z</time>
</trkpt>
<trkpt lat="46.335010000" lon="-72.434660000">
<ele>0</ele>
<time>2026-09-04T06:35:46Z</time>
</trkpt>
<trkpt lat="46.334860000" lon="-72.434520000">
<ele>0</ele>
<time>2026-09-04T06:35:47Z</time>
</trkpt>
<trkpt lat="46.334820000" lon="-72.434390000">
<ele>0</ele>
<time>2026-09-04T06:35:48Z</time>
</trkpt>
<trkpt lat="46.334800000" lon="-72.434310000">
<ele>0</ele>
<time>2026-09-04T06:35:49Z</time>
</trkpt>
<trkpt lat="46.334800000" lon="-72.434310000">
<ele>0</ele>
<time>2026-09-04T06:35:50Z</time>
</trkpt>
<trkpt lat="46.334520000" lon="-72.433050000">
<ele>0</ele>
<time>2026-09-04T06:35:51Z</time>
</trkpt>
<trkpt lat="46.334350000" lon="-72.432610000">
<ele>0</ele>
<time>2026-09-04T06:35:52Z</time>
</trkpt>
<trkpt lat="46.334200000" lon="-72.432390000">
<ele>0</ele>
<time>2026-09-04T06:35:53Z</time>
</trkpt>
<trkpt lat="46.333450000" lon="-72.431570000">
<ele>0</ele>
<time>2026-09-04T06:35:54Z</time>
</trkpt>
<trkpt lat="46.333300000" lon="-72.431390000">
<ele>0</ele>
<time>2026-09-04T06:35:55Z</time>
</trkpt>
<trkpt lat="46.333170000" lon="-72.431180000">
<ele>0</ele>
<time>2026-09-04T06:35:56Z</time>
</trkpt>
<trkpt lat="46.332820000" lon="-72.430470000">
<ele>0</ele>
<time>2026-09-04T06:35:57Z</time>
</trkpt>
<trkpt lat="46.332110000" lon="-72.428640000">
<ele>0</ele>
<time>2026-09-04T06:35:58Z</time>
</trkpt>
<trkpt lat="46.331990000" lon="-72.428250000">
<ele>0</ele>
<time>2026-09-04T06:35:59Z</time>
</trkpt>
<trkpt lat="46.331810000" lon="-72.427360000">
<ele>0</ele>
<time>2026-09-04T06:36:00Z</time>
</trkpt>
<trkpt lat="46.331750000" lon="-72.427080000">
<ele>0</ele>
<time>2026-09-04T06:36:01Z</time>
</trkpt>
<trkpt lat="46.331630000" lon="-72.426780000">
<ele>0</ele>
<time>2026-09-04T06:36:02Z</time>
</trkpt>
<trkpt lat="46.331520000" lon="-72.426590000">
<ele>0</ele>
<time>2026-09-04T06:36:03Z</time>
</trkpt>
<trkpt lat="46.331290000" lon="-72.426280000">
<ele>0</ele>
<time>2026-09-04T06:36:04Z</time>
</trkpt>
<trkpt lat="46.330930000" lon="-72.425830000">
<ele>0</ele>
<time>2026-09-04T06:36:05Z</time>
</trkpt>
<trkpt lat="46.330800000" lon="-72.425640000">
<ele>0</ele>
<time>2026-09-04T06:36:06Z</time>
</trkpt>
<trkpt lat="46.330710000" lon="-72.425430000">
<ele>0</ele>
<time>2026-09-04T06:36:07Z</time>
</trkpt>
<trkpt lat="46.330660000" lon="-72.425280000">
<ele>0</ele>
<time>2026-09-04T06:36:08Z</time>
</trkpt>
<trkpt lat="46.330610000" lon="-72.424960000">
<ele>0</ele>
<time>2026-09-04T06:36:09Z</time>
</trkpt>
<trkpt lat="46.330600000" lon="-72.424660000">
<ele>0</ele>
<time>2026-09-04T06:36:10Z</time>
</trkpt>
<trkpt lat="46.330570000" lon="-72.423880000">
<ele>0</ele>
<time>2026-09-04T06:36:11Z</time>
</trkpt>
<trkpt lat="46.330530000" lon="-72.423240000">
<ele>0</ele>
<time>2026-09-04T06:36:12Z</time>
</trkpt>
<trkpt lat="46.330470000" lon="-72.422860000">
<ele>0</ele>
<time>2026-09-04T06:36:13Z</time>
</trkpt>
<trkpt lat="46.330410000" lon="-72.422610000">
<ele>0</ele>
<time>2026-09-04T06:36:14Z</time>
</trkpt>
<trkpt lat="46.330260000" lon="-72.422140000">
<ele>0</ele>
<time>2026-09-04T06:36:15Z</time>
</trkpt>
<trkpt lat="46.330160000" lon="-72.421920000">
<ele>0</ele>
<time>2026-09-04T06:36:16Z</time>
</trkpt>
<trkpt lat="46.330050000" lon="-72.421700000">
<ele>0</ele>
<time>2026-09-04T06:36:17Z</time>
</trkpt>
<trkpt lat="46.329830000" lon="-72.421350000">
<ele>0</ele>
<time>2026-09-04T06:36:18Z</time>
</trkpt>
<trkpt lat="46.329750000" lon="-72.421250000">
<ele>0</ele>
<time>2026-09-04T06:36:19Z</time>
</trkpt>
<trkpt lat="46.329560000" lon="-72.420960000">
<ele>0</ele>
<time>2026-09-04T06:36:20Z</time>
</trkpt>
<trkpt lat="46.329240000" lon="-72.421410000">
<ele>0</ele>
<time>2026-09-04T06:36:21Z</time>
</trkpt>
<trkpt lat="46.329240000" lon="-72.421410000">
<ele>0</ele>
<time>2026-09-04T06:36:22Z</time>
</trkpt>
<trkpt lat="46.328600000" lon="-72.422330000">
<ele>0</ele>
<time>2026-09-04T06:36:23Z</time>
</trkpt>
<trkpt lat="46.325920000" lon="-72.426560000">
<ele>0</ele>
<time>2026-09-04T06:36:24Z</time>
</trkpt>
<trkpt lat="46.323190000" lon="-72.430710000">
<ele>0</ele>
<time>2026-09-04T06:36:25Z</time>
</trkpt>
<trkpt lat="46.322540000" lon="-72.431710000">
<ele>0</ele>
<time>2026-09-04T06:36:26Z</time>
</trkpt>
<trkpt lat="46.322270000" lon="-72.432020000">
<ele>0</ele>
<time>2026-09-04T06:36:27Z</time>
</trkpt>
<trkpt lat="46.322190000" lon="-72.432120000">
<ele>0</ele>
<time>2026-09-04T06:36:28Z</time>
</trkpt>
<trkpt lat="46.321960000" lon="-72.432310000">
<ele>0</ele>
<time>2026-09-04T06:36:29Z</time>
</trkpt>
<trkpt lat="46.321650000" lon="-72.432520000">
<ele>0</ele>
<time>2026-09-04T06:36:30Z</time>
</trkpt>
<trkpt lat="46.321250000" lon="-72.432700000">
<ele>0</ele>
<time>2026-09-04T06:36:31Z</time>
</trkpt>
<trkpt lat="46.320920000" lon="-72.432800000">
<ele>0</ele>
<time>2026-09-04T06:36:32Z</time>
</trkpt>
<trkpt lat="46.320580000" lon="-72.432870000">
<ele>0</ele>
<time>2026-09-04T06:36:33Z</time>
</trkpt>
<trkpt lat="46.319840000" lon="-72.433010000">
<ele>0</ele>
<time>2026-09-04T06:36:34Z</time>
</trkpt>
<trkpt lat="46.318660000" lon="-72.433250000">
<ele>0</ele>
<time>2026-09-04T06:36:35Z</time>
</trkpt>
<trkpt lat="46.318110000" lon="-72.433410000">
<ele>0</ele>
<time>2026-09-04T06:36:36Z</time>
</trkpt>
<trkpt lat="46.317830000" lon="-72.433570000">
<ele>0</ele>
<time>2026-09-04T06:36:37Z</time>
</trkpt>
<trkpt lat="46.317600000" lon="-72.433720000">
<ele>0</ele>
<time>2026-09-04T06:36:38Z</time>
</trkpt>
<trkpt lat="46.317410000" lon="-72.433880000">
<ele>0</ele>
<time>2026-09-04T06:36:39Z</time>
</trkpt>
<trkpt lat="46.316720000" lon="-72.434650000">
<ele>0</ele>
<time>2026-09-04T06:36:40Z</time>
</trkpt>
<trkpt lat="46.315780000" lon="-72.435790000">
<ele>0</ele>
<time>2026-09-04T06:36:41Z</time>
</trkpt>
<trkpt lat="46.315130000" lon="-72.436720000">
<ele>0</ele>
<time>2026-09-04T06:36:42Z</time>
</trkpt>
<trkpt lat="46.314480000" lon="-72.437750000">
<ele>0</ele>
<time>2026-09-04T06:36:43Z</time>
</trkpt>
<trkpt lat="46.313960000" lon="-72.438560000">
<ele>0</ele>
<time>2026-09-04T06:36:44Z</time>
</trkpt>
<trkpt lat="46.313140000" lon="-72.439830000">
<ele>0</ele>
<time>2026-09-04T06:36:45Z</time>
</trkpt>
<trkpt lat="46.313000000" lon="-72.440000000">
<ele>0</ele>
<time>2026-09-04T06:36:46Z</time>
</trkpt>
<trkpt lat="46.312640000" lon="-72.440380000">
<ele>0</ele>
<time>2026-09-04T06:36:47Z</time>
</trkpt>
<trkpt lat="46.312440000" lon="-72.440570000">
<ele>0</ele>
<time>2026-09-04T06:36:48Z</time>
</trkpt>
<trkpt lat="46.312140000" lon="-72.440800000">
<ele>0</ele>
<time>2026-09-04T06:36:49Z</time>
</trkpt>
<trkpt lat="46.311820000" lon="-72.441010000">
<ele>0</ele>
<time>2026-09-04T06:36:50Z</time>
</trkpt>
<trkpt lat="46.310850000" lon="-72.441610000">
<ele>0</ele>
<time>2026-09-04T06:36:51Z</time>
</trkpt>
<trkpt lat="46.310410000" lon="-72.442000000">
<ele>0</ele>
<time>2026-09-04T06:36:52Z</time>
</trkpt>
<trkpt lat="46.310260000" lon="-72.442190000">
<ele>0</ele>
<time>2026-09-04T06:36:53Z</time>
</trkpt>
<trkpt lat="46.309890000" lon="-72.442770000">
<ele>0</ele>
<time>2026-09-04T06:36:54Z</time>
</trkpt>
<trkpt lat="46.309350000" lon="-72.443930000">
<ele>0</ele>
<time>2026-09-04T06:36:55Z</time>
</trkpt>
<trkpt lat="46.308280000" lon="-72.446290000">
<ele>0</ele>
<time>2026-09-04T06:36:56Z</time>
</trkpt>
<trkpt lat="46.307730000" lon="-72.447430000">
<ele>0</ele>
<time>2026-09-04T06:36:57Z</time>
</trkpt>
<trkpt lat="46.307430000" lon="-72.448310000">
<ele>0</ele>
<time>2026-09-04T06:36:58Z</time>
</trkpt>
<trkpt lat="46.307310000" lon="-72.449130000">
<ele>0</ele>
<time>2026-09-04T06:36:59Z</time>
</trkpt>
<trkpt lat="46.307160000" lon="-72.449700000">
<ele>0</ele>
<time>2026-09-04T06:37:00Z</time>
</trkpt>
<trkpt lat="46.306790000" lon="-72.450760000">
<ele>0</ele>
<time>2026-09-04T06:37:01Z</time>
</trkpt>
<trkpt lat="46.305610000" lon="-72.454010000">
<ele>0</ele>
<time>2026-09-04T06:37:02Z</time>
</trkpt>
<trkpt lat="46.304900000" lon="-72.456080000">
<ele>0</ele>
<time>2026-09-04T06:37:03Z</time>
</trkpt>
<trkpt lat="46.304400000" lon="-72.457830000">
<ele>0</ele>
<time>2026-09-04T06:37:04Z</time>
</trkpt>
<trkpt lat="46.303570000" lon="-72.460570000">
<ele>0</ele>
<time>2026-09-04T06:37:05Z</time>
</trkpt>
<trkpt lat="46.302790000" lon="-72.462910000">
<ele>0</ele>
<time>2026-09-04T06:37:06Z</time>
</trkpt>
<trkpt lat="46.302400000" lon="-72.463830000">
<ele>0</ele>
<time>2026-09-04T06:37:07Z</time>
</trkpt>
<trkpt lat="46.300780000" lon="-72.467200000">
<ele>0</ele>
<time>2026-09-04T06:37:08Z</time>
</trkpt>
<trkpt lat="46.300200000" lon="-72.468410000">
<ele>0</ele>
<time>2026-09-04T06:37:09Z</time>
</trkpt>
<trkpt lat="46.299810000" lon="-72.469130000">
<ele>0</ele>
<time>2026-09-04T06:37:10Z</time>
</trkpt>
<trkpt lat="46.299440000" lon="-72.469770000">
<ele>0</ele>
<time>2026-09-04T06:37:11Z</time>
</trkpt>
<trkpt lat="46.298760000" lon="-72.470840000">
<ele>0</ele>
<time>2026-09-04T06:37:12Z</time>
</trkpt>
<trkpt lat="46.297820000" lon="-72.472310000">
<ele>0</ele>
<time>2026-09-04T06:37:13Z</time>
</trkpt>
<trkpt lat="46.297500000" lon="-72.472800000">
<ele>0</ele>
<time>2026-09-04T06:37:14Z</time>
</trkpt>
<trkpt lat="46.297090000" lon="-72.473530000">
<ele>0</ele>
<time>2026-09-04T06:37:15Z</time>
</trkpt>
<trkpt lat="46.296770000" lon="-72.474240000">
<ele>0</ele>
<time>2026-09-04T06:37:16Z</time>
</trkpt>
<trkpt lat="46.296260000" lon="-72.475590000">
<ele>0</ele>
<time>2026-09-04T06:37:17Z</time>
</trkpt>
<trkpt lat="46.296010000" lon="-72.476290000">
<ele>0</ele>
<time>2026-09-04T06:37:18Z</time>
</trkpt>
<trkpt lat="46.295640000" lon="-72.477370000">
<ele>0</ele>
<time>2026-09-04T06:37:19Z</time>
</trkpt>
<trkpt lat="46.293860000" lon="-72.482440000">
<ele>0</ele>
<time>2026-09-04T06:37:20Z</time>
</trkpt>
<trkpt lat="46.293360000" lon="-72.483950000">
<ele>0</ele>
<time>2026-09-04T06:37:21Z</time>
</trkpt>
<trkpt lat="46.293260000" lon="-72.484300000">
<ele>0</ele>
<time>2026-09-04T06:37:22Z</time>
</trkpt>
<trkpt lat="46.293120000" lon="-72.485000000">
<ele>0</ele>
<time>2026-09-04T06:37:23Z</time>
</trkpt>
<trkpt lat="46.293030000" lon="-72.485570000">
<ele>0</ele>
<time>2026-09-04T06:37:24Z</time>
</trkpt>
<trkpt lat="46.292980000" lon="-72.486120000">
<ele>0</ele>
<time>2026-09-04T06:37:25Z</time>
</trkpt>
<trkpt lat="46.292910000" lon="-72.487440000">
<ele>0</ele>
<time>2026-09-04T06:37:26Z</time>
</trkpt>
<trkpt lat="46.292880000" lon="-72.487890000">
<ele>0</ele>
<time>2026-09-04T06:37:27Z</time>
</trkpt>
<trkpt lat="46.292790000" lon="-72.488890000">
<ele>0</ele>
<time>2026-09-04T06:37:28Z</time>
</trkpt>
<trkpt lat="46.292630000" lon="-72.489710000">
<ele>0</ele>
<time>2026-09-04T06:37:29Z</time>
</trkpt>
<trkpt lat="46.292510000" lon="-72.490120000">
<ele>0</ele>
<time>2026-09-04T06:37:30Z</time>
</trkpt>
<trkpt lat="46.292070000" lon="-72.491370000">
<ele>0</ele>
<time>2026-09-04T06:37:31Z</time>
</trkpt>
<trkpt lat="46.290750000" lon="-72.494880000">
<ele>0</ele>
<time>2026-09-04T06:37:32Z</time>
</trkpt>
<trkpt lat="46.290530000" lon="-72.495420000">
<ele>0</ele>
<time>2026-09-04T06:37:33Z</time>
</trkpt>
<trkpt lat="46.290320000" lon="-72.495840000">
<ele>0</ele>
<time>2026-09-04T06:37:34Z</time>
</trkpt>
<trkpt lat="46.290230000" lon="-72.496010000">
<ele>0</ele>
<time>2026-09-04T06:37:35Z</time>
</trkpt>
<trkpt lat="46.289920000" lon="-72.496480000">
<ele>0</ele>
<time>2026-09-04T06:37:36Z</time>
</trkpt>
<trkpt lat="46.289550000" lon="-72.496920000">
<ele>0</ele>
<time>2026-09-04T06:37:37Z</time>
</trkpt>
<trkpt lat="46.289070000" lon="-72.497320000">
<ele>0</ele>
<time>2026-09-04T06:37:38Z</time>
</trkpt>
<trkpt lat="46.288590000" lon="-72.497630000">
<ele>0</ele>
<time>2026-09-04T06:37:39Z</time>
</trkpt>
<trkpt lat="46.288110000" lon="-72.497860000">
<ele>0</ele>
<time>2026-09-04T06:37:40Z</time>
</trkpt>
<trkpt lat="46.285390000" lon="-72.498190000">
<ele>0</ele>
<time>2026-09-04T06:37:41Z</time>
</trkpt>
<trkpt lat="46.283220000" lon="-72.498460000">
<ele>0</ele>
<time>2026-09-04T06:37:42Z</time>
</trkpt>
<trkpt lat="46.282860000" lon="-72.498370000">
<ele>0</ele>
<time>2026-09-04T06:37:43Z</time>
</trkpt>
<trkpt lat="46.282530000" lon="-72.498260000">
<ele>0</ele>
<time>2026-09-04T06:37:44Z</time>
</trkpt>
<trkpt lat="46.282420000" lon="-72.498220000">
<ele>0</ele>
<time>2026-09-04T06:37:45Z</time>
</trkpt>
<trkpt lat="46.281950000" lon="-72.497870000">
<ele>0</ele>
<time>2026-09-04T06:37:46Z</time>
</trkpt>
<trkpt lat="46.281530000" lon="-72.497460000">
<ele>0</ele>
<time>2026-09-04T06:37:47Z</time>
</trkpt>
<trkpt lat="46.280810000" lon="-72.496440000">
<ele>0</ele>
<time>2026-09-04T06:37:48Z</time>
</trkpt>
<trkpt lat="46.280150000" lon="-72.495490000">
<ele>0</ele>
<time>2026-09-04T06:37:49Z</time>
</trkpt>
<trkpt lat="46.279830000" lon="-72.495960000">
<ele>0</ele>
<time>2026-09-04T06:37:50Z</time>
</trkpt>
<trkpt lat="46.279830000" lon="-72.495960000">
<ele>0</ele>
<time>2026-09-04T06:37:51Z</time>
</trkpt>
<trkpt lat="46.276870000" lon="-72.500340000">
<ele>0</ele>
<time>2026-09-04T06:37:52Z</time>
</trkpt>
<trkpt lat="46.275260000" lon="-72.502540000">
<ele>0</ele>
<time>2026-09-04T06:37:53Z</time>
</trkpt>
<trkpt lat="46.274940000" lon="-72.503110000">
<ele>0</ele>
<time>2026-09-04T06:37:54Z</time>
</trkpt>
<trkpt lat="46.274410000" lon="-72.503890000">
<ele>0</ele>
<time>2026-09-04T06:37:55Z</time>
</trkpt>
<trkpt lat="46.273660000" lon="-72.504970000">
<ele>0</ele>
<time>2026-09-04T06:37:56Z</time>
</trkpt>
<trkpt lat="46.273300000" lon="-72.505640000">
<ele>0</ele>
<time>2026-09-04T06:37:57Z</time>
</trkpt>
<trkpt lat="46.273080000" lon="-72.506020000">
<ele>0</ele>
<time>2026-09-04T06:37:58Z</time>
</trkpt>
<trkpt lat="46.271990000" lon="-72.508350000">
<ele>0</ele>
<time>2026-09-04T06:37:59Z</time>
</trkpt>
<trkpt lat="46.271680000" lon="-72.508800000">
<ele>0</ele>
<time>2026-09-04T06:38:00Z</time>
</trkpt>
<trkpt lat="46.271210000" lon="-72.509300000">
<ele>0</ele>
<time>2026-09-04T06:38:01Z</time>
</trkpt>
<trkpt lat="46.270560000" lon="-72.509940000">
<ele>0</ele>
<time>2026-09-04T06:38:02Z</time>
</trkpt>
<trkpt lat="46.270250000" lon="-72.509470000">
<ele>0</ele>
<time>2026-09-04T06:38:03Z</time>
</trkpt>
<trkpt lat="46.270250000" lon="-72.509470000">
<ele>0</ele>
<time>2026-09-04T06:38:04Z</time>
</trkpt>
<trkpt lat="46.269750000" lon="-72.508700000">
<ele>0</ele>
<time>2026-09-04T06:38:05Z</time>
</trkpt>
<trkpt lat="46.269360000" lon="-72.508160000">
<ele>0</ele>
<time>2026-09-04T06:38:06Z</time>
</trkpt>
<trkpt lat="46.267920000" lon="-72.506140000">
<ele>0</ele>
<time>2026-09-04T06:38:07Z</time>
</trkpt>
<trkpt lat="46.267450000" lon="-72.505420000">
<ele>0</ele>
<time>2026-09-04T06:38:08Z</time>
</trkpt>
<trkpt lat="46.266010000" lon="-72.503460000">
<ele>0</ele>
<time>2026-09-04T06:38:09Z</time>
</trkpt>
<trkpt lat="46.265020000" lon="-72.502150000">
<ele>0</ele>
<time>2026-09-04T06:38:10Z</time>
</trkpt>
<trkpt lat="46.264570000" lon="-72.501500000">
<ele>0</ele>
<time>2026-09-04T06:38:11Z</time>
</trkpt>
<trkpt lat="46.261610000" lon="-72.497340000">
<ele>0</ele>
<time>2026-09-04T06:38:12Z</time>
</trkpt>
<trkpt lat="46.258090000" lon="-72.492470000">
<ele>0</ele>
<time>2026-09-04T06:38:13Z</time>
</trkpt>
<trkpt lat="46.256400000" lon="-72.490090000">
<ele>0</ele>
<time>2026-09-04T06:38:14Z</time>
</trkpt>
<trkpt lat="46.253770000" lon="-72.486550000">
<ele>0</ele>
<time>2026-09-04T06:38:15Z</time>
</trkpt>
<trkpt lat="46.251800000" lon="-72.483880000">
<ele>0</ele>
<time>2026-09-04T06:38:16Z</time>
</trkpt>
<trkpt lat="46.248560000" lon="-72.479480000">
<ele>0</ele>
<time>2026-09-04T06:38:17Z</time>
</trkpt>
<trkpt lat="46.247940000" lon="-72.478590000">
<ele>0</ele>
<time>2026-09-04T06:38:18Z</time>
</trkpt>
<trkpt lat="46.247670000" lon="-72.478110000">
<ele>0</ele>
<time>2026-09-04T06:38:19Z</time>
</trkpt>
<trkpt lat="46.247080000" lon="-72.476910000">
<ele>0</ele>
<time>2026-09-04T06:38:20Z</time>
</trkpt>
<trkpt lat="46.246630000" lon="-72.475940000">
<ele>0</ele>
<time>2026-09-04T06:38:21Z</time>
</trkpt>
<trkpt lat="46.246420000" lon="-72.475570000">
<ele>0</ele>
<time>2026-09-04T06:38:22Z</time>
</trkpt>
<trkpt lat="46.246130000" lon="-72.475030000">
<ele>0</ele>
<time>2026-09-04T06:38:23Z</time>
</trkpt>
<trkpt lat="46.245810000" lon="-72.474550000">
<ele>0</ele>
<time>2026-09-04T06:38:24Z</time>
</trkpt>
<trkpt lat="46.245300000" lon="-72.473870000">
<ele>0</ele>
<time>2026-09-04T06:38:25Z</time>
</trkpt>
<trkpt lat="46.241450000" lon="-72.468470000">
<ele>0</ele>
<time>2026-09-04T06:38:26Z</time>
</trkpt>
<trkpt lat="46.240230000" lon="-72.466760000">
<ele>0</ele>
<time>2026-09-04T06:38:27Z</time>
</trkpt>
<trkpt lat="46.237290000" lon="-72.462670000">
<ele>0</ele>
<time>2026-09-04T06:38:28Z</time>
</trkpt>
<trkpt lat="46.236870000" lon="-72.462120000">
<ele>0</ele>
<time>2026-09-04T06:38:29Z</time>
</trkpt>
<trkpt lat="46.236530000" lon="-72.461780000">
<ele>0</ele>
<time>2026-09-04T06:38:30Z</time>
</trkpt>
<trkpt lat="46.236240000" lon="-72.461510000">
<ele>0</ele>
<time>2026-09-04T06:38:31Z</time>
</trkpt>
<trkpt lat="46.235950000" lon="-72.461300000">
<ele>0</ele>
<time>2026-09-04T06:38:32Z</time>
</trkpt>
<trkpt lat="46.234110000" lon="-72.460150000">
<ele>0</ele>
<time>2026-09-04T06:38:33Z</time>
</trkpt>
<trkpt lat="46.233760000" lon="-72.459960000">
<ele>0</ele>
<time>2026-09-04T06:38:34Z</time>
</trkpt>
<trkpt lat="46.233530000" lon="-72.459790000">
<ele>0</ele>
<time>2026-09-04T06:38:35Z</time>
</trkpt>
<trkpt lat="46.233150000" lon="-72.459450000">
<ele>0</ele>
<time>2026-09-04T06:38:36Z</time>
</trkpt>
<trkpt lat="46.232710000" lon="-72.459900000">
<ele>0</ele>
<time>2026-09-04T06:38:37Z</time>
</trkpt>
<trkpt lat="46.232490000" lon="-72.460240000">
<ele>0</ele>
<time>2026-09-04T06:38:38Z</time>
</trkpt>
<trkpt lat="46.232300000" lon="-72.460650000">
<ele>0</ele>
<time>2026-09-04T06:38:39Z</time>
</trkpt>
<trkpt lat="46.231930000" lon="-72.461460000">
<ele>0</ele>
<time>2026-09-04T06:38:40Z</time>
</trkpt>
<trkpt lat="46.231930000" lon="-72.461460000">
<ele>0</ele>
<time>2026-09-04T06:38:41Z</time>
</trkpt>
<trkpt lat="46.231800000" lon="-72.461760000">
<ele>0</ele>
<time>2026-09-04T06:38:42Z</time>
</trkpt>
<trkpt lat="46.231430000" lon="-72.462590000">
<ele>0</ele>
<time>2026-09-04T06:38:43Z</time>
</trkpt>
<trkpt lat="46.231030000" lon="-72.463270000">
<ele>0</ele>
<time>2026-09-04T06:38:44Z</time>
</trkpt>
<trkpt lat="46.230280000" lon="-72.464380000">
<ele>0</ele>
<time>2026-09-04T06:38:45Z</time>
</trkpt>
<trkpt lat="46.229960000" lon="-72.464840000">
<ele>0</ele>
<time>2026-09-04T06:38:46Z</time>
</trkpt>
<trkpt lat="46.228300000" lon="-72.467200000">
<ele>0</ele>
<time>2026-09-04T06:38:47Z</time>
</trkpt>
<trkpt lat="46.227180000" lon="-72.468820000">
<ele>0</ele>
<time>2026-09-04T06:38:48Z</time>
</trkpt>
<trkpt lat="46.226590000" lon="-72.469720000">
<ele>0</ele>
<time>2026-09-04T06:38:49Z</time>
</trkpt>
<trkpt lat="46.226220000" lon="-72.470280000">
<ele>0</ele>
<time>2026-09-04T06:38:50Z</time>
</trkpt>
<trkpt lat="46.224570000" lon="-72.472680000">
<ele>0</ele>
<time>2026-09-04T06:38:51Z</time>
</trkpt>
<trkpt lat="46.222210000" lon="-72.476000000">
<ele>0</ele>
<time>2026-09-04T06:38:52Z</time>
</trkpt>
<trkpt lat="46.219570000" lon="-72.479810000">
<ele>0</ele>
<time>2026-09-04T06:38:53Z</time>
</trkpt>
<trkpt lat="46.215910000" lon="-72.485350000">
<ele>0</ele>
<time>2026-09-04T06:38:54Z</time>
</trkpt>
<trkpt lat="46.213710000" lon="-72.488620000">
<ele>0</ele>
<time>2026-09-04T06:38:55Z</time>
</trkpt>
<trkpt lat="46.208820000" lon="-72.495970000">
<ele>0</ele>
<time>2026-09-04T06:38:56Z</time>
</trkpt>
<trkpt lat="46.207190000" lon="-72.498480000">
<ele>0</ele>
<time>2026-09-04T06:38:57Z</time>
</trkpt>
<trkpt lat="46.205950000" lon="-72.500350000">
<ele>0</ele>
<time>2026-09-04T06:38:58Z</time>
</trkpt>
<trkpt lat="46.204980000" lon="-72.501780000">
<ele>0</ele>
<time>2026-09-04T06:38:59Z</time>
</trkpt>
<trkpt lat="46.204890000" lon="-72.501920000">
<ele>0</ele>
<time>2026-09-04T06:39:00Z</time>
</trkpt>
<trkpt lat="46.204740000" lon="-72.502030000">
<ele>0</ele>
<time>2026-09-04T06:39:01Z</time>
</trkpt>
<trkpt lat="46.204520000" lon="-72.502090000">
<ele>0</ele>
<time>2026-09-04T06:39:02Z</time>
</trkpt>
<trkpt lat="46.204420000" lon="-72.502070000">
<ele>0</ele>
<time>2026-09-04T06:39:03Z</time>
</trkpt>
<trkpt lat="46.204210000" lon="-72.501900000">
<ele>0</ele>
<time>2026-09-04T06:39:04Z</time>
</trkpt>
<trkpt lat="46.204080000" lon="-72.501770000">
<ele>0</ele>
<time>2026-09-04T06:39:05Z</time>
</trkpt>
<trkpt lat="46.204000000" lon="-72.501730000">
<ele>0</ele>
<time>2026-09-04T06:39:06Z</time>
</trkpt>
<trkpt lat="46.203920000" lon="-72.501710000">
<ele>0</ele>
<time>2026-09-04T06:39:07Z</time>
</trkpt>
<trkpt lat="46.203830000" lon="-72.501720000">
<ele>0</ele>
<time>2026-09-04T06:39:08Z</time>
</trkpt>
<trkpt lat="46.203760000" lon="-72.501760000">
<ele>0</ele>
<time>2026-09-04T06:39:09Z</time>
</trkpt>
<trkpt lat="46.202390000" lon="-72.504100000">
<ele>0</ele>
<time>2026-09-04T06:39:10Z</time>
</trkpt>
<trkpt lat="46.200810000" lon="-72.506860000">
<ele>0</ele>
<time>2026-09-04T06:39:11Z</time>
</trkpt>
<trkpt lat="46.197230000" lon="-72.513050000">
<ele>0</ele>
<time>2026-09-04T06:39:12Z</time>
</trkpt>
<trkpt lat="46.197100000" lon="-72.513280000">
<ele>0</ele>
<time>2026-09-04T06:39:13Z</time>
</trkpt>
<trkpt lat="46.196500000" lon="-72.514360000">
<ele>0</ele>
<time>2026-09-04T06:39:14Z</time>
</trkpt>
<trkpt lat="46.195530000" lon="-72.516180000">
<ele>0</ele>
<time>2026-09-04T06:39:15Z</time>
</trkpt>
<trkpt lat="46.195960000" lon="-72.516760000">
<ele>0</ele>
<time>2026-09-04T06:39:16Z</time>
</trkpt>
<trkpt lat="46.195960000" lon="-72.516760000">
<ele>0</ele>
<time>2026-09-04T06:39:17Z</time>
</trkpt>
<trkpt lat="46.197550000" lon="-72.518930000">
<ele>0</ele>
<time>2026-09-04T06:39:18Z</time>
</trkpt>
<trkpt lat="46.198450000" lon="-72.520210000">
<ele>0</ele>
<time>2026-09-04T06:39:19Z</time>
</trkpt>
<trkpt lat="46.199950000" lon="-72.522340000">
<ele>0</ele>
<time>2026-09-04T06:39:20Z</time>
</trkpt>
<trkpt lat="46.202470000" lon="-72.525790000">
<ele>0</ele>
<time>2026-09-04T06:39:21Z</time>
</trkpt>
<trkpt lat="46.203930000" lon="-72.527830000">
<ele>0</ele>
<time>2026-09-04T06:39:22Z</time>
</trkpt>
<trkpt lat="46.204400000" lon="-72.528470000">
<ele>0</ele>
<time>2026-09-04T06:39:23Z</time>
</trkpt>
<trkpt lat="46.204800000" lon="-72.529200000">
<ele>0</ele>
<time>2026-09-04T06:39:24Z</time>
</trkpt>
<trkpt lat="46.205050000" lon="-72.529740000">
<ele>0</ele>
<time>2026-09-04T06:39:25Z</time>
</trkpt>
<trkpt lat="46.205570000" lon="-72.530990000">
<ele>0</ele>
<time>2026-09-04T06:39:26Z</time>
</trkpt>
<trkpt lat="46.205850000" lon="-72.531470000">
<ele>0</ele>
<time>2026-09-04T06:39:27Z</time>
</trkpt>
<trkpt lat="46.206380000" lon="-72.532160000">
<ele>0</ele>
<time>2026-09-04T06:39:28Z</time>
</trkpt>
<trkpt lat="46.206720000" lon="-72.532500000">
<ele>0</ele>
<time>2026-09-04T06:39:29Z</time>
</trkpt>
<trkpt lat="46.207200000" lon="-72.532940000">
<ele>0</ele>
<time>2026-09-04T06:39:30Z</time>
</trkpt>
<trkpt lat="46.208050000" lon="-72.533700000">
<ele>0</ele>
<time>2026-09-04T06:39:31Z</time>
</trkpt>
<trkpt lat="46.208440000" lon="-72.534140000">
<ele>0</ele>
<time>2026-09-04T06:39:32Z</time>
</trkpt>
<trkpt lat="46.208890000" lon="-72.534710000">
<ele>0</ele>
<time>2026-09-04T06:39:33Z</time>
</trkpt>
<trkpt lat="46.210240000" lon="-72.536600000">
<ele>0</ele>
<time>2026-09-04T06:39:34Z</time>
</trkpt>
<trkpt lat="46.211800000" lon="-72.538760000">
<ele>0</ele>
<time>2026-09-04T06:39:35Z</time>
</trkpt>
<trkpt lat="46.213870000" lon="-72.541620000">
<ele>0</ele>
<time>2026-09-04T06:39:36Z</time>
</trkpt>
<trkpt lat="46.215770000" lon="-72.544320000">
<ele>0</ele>
<time>2026-09-04T06:39:37Z</time>
</trkpt>
<trkpt lat="46.217600000" lon="-72.546840000">
<ele>0</ele>
<time>2026-09-04T06:39:38Z</time>
</trkpt>
<trkpt lat="46.218650000" lon="-72.548270000">
<ele>0</ele>
<time>2026-09-04T06:39:39Z</time>
</trkpt>
<trkpt lat="46.220560000" lon="-72.550930000">
<ele>0</ele>
<time>2026-09-04T06:39:40Z</time>
</trkpt>
<trkpt lat="46.224410000" lon="-72.556340000">
<ele>0</ele>
<time>2026-09-04T06:39:41Z</time>
</trkpt>
<trkpt lat="46.228080000" lon="-72.561480000">
<ele>0</ele>
<time>2026-09-04T06:39:42Z</time>
</trkpt>
<trkpt lat="46.231030000" lon="-72.565660000">
<ele>0</ele>
<time>2026-09-04T06:39:43Z</time>
</trkpt>
<trkpt lat="46.234890000" lon="-72.571110000">
<ele>0</ele>
<time>2026-09-04T06:39:44Z</time>
</trkpt>
<trkpt lat="46.237890000" lon="-72.575380000">
<ele>0</ele>
<time>2026-09-04T06:39:45Z</time>
</trkpt>
<trkpt lat="46.239030000" lon="-72.576970000">
<ele>0</ele>
<time>2026-09-04T06:39:46Z</time>
</trkpt>
<trkpt lat="46.238740000" lon="-72.577580000">
<ele>0</ele>
<time>2026-09-04T06:39:47Z</time>
</trkpt>
<trkpt lat="46.238200000" lon="-72.578740000">
<ele>0</ele>
<time>2026-09-04T06:39:48Z</time>
</trkpt>
<trkpt lat="46.238200000" lon="-72.578740000">
<ele>0</ele>
<time>2026-09-04T06:39:49Z</time>
</trkpt>
<trkpt lat="46.236910000" lon="-72.581610000">
<ele>0</ele>
<time>2026-09-04T06:39:50Z</time>
</trkpt>
<trkpt lat="46.228790000" lon="-72.603460000">
<ele>0</ele>
<time>2026-09-04T06:39:51Z</time>
</trkpt>
<trkpt lat="46.228720000" lon="-72.603590000">
<ele>0</ele>
<time>2026-09-04T06:39:52Z</time>
</trkpt>
<trkpt lat="46.228970000" lon="-72.603950000">
<ele>0</ele>
<time>2026-09-04T06:39:53Z</time>
</trkpt>
<trkpt lat="46.229030000" lon="-72.604030000">
<ele>0</ele>
<time>2026-09-04T06:39:54Z</time>
</trkpt>
<trkpt lat="46.229030000" lon="-72.604030000">
<ele>0</ele>
<time>2026-09-04T06:39:55Z</time>
</trkpt>
<trkpt lat="46.229510000" lon="-72.604720000">
<ele>0</ele>
<time>2026-09-04T06:39:56Z</time>
</trkpt>
<trkpt lat="46.229990000" lon="-72.605340000">
<ele>0</ele>
<time>2026-09-04T06:39:57Z</time>
</trkpt>
<trkpt lat="46.231070000" lon="-72.606920000">
<ele>0</ele>
<time>2026-09-04T06:39:58Z</time>
</trkpt>
<trkpt lat="46.231400000" lon="-72.606470000">
<ele>0</ele>
<time>2026-09-04T06:39:59Z</time>
</trkpt>
<trkpt lat="46.231400000" lon="-72.606470000">
<ele>0</ele>
<time>2026-09-04T06:40:00Z</time>
</trkpt>
<trkpt lat="46.231070000" lon="-72.606920000">
<ele>0</ele>
<time>2026-09-04T06:40:01Z</time>
</trkpt>
<trkpt lat="46.231720000" lon="-72.607780000">
<ele>0</ele>
<time>2026-09-04T06:40:02Z</time>
</trkpt>
<trkpt lat="46.231720000" lon="-72.607780000">
<ele>0</ele>
<time>2026-09-04T06:40:03Z</time>
</trkpt>
<trkpt lat="46.231840000" lon="-72.607920000">
<ele>0</ele>
<time>2026-09-04T06:40:04Z</time>
</trkpt>
<trkpt lat="46.231500000" lon="-72.608410000">
<ele>0</ele>
<time>2026-09-04T06:40:05Z</time>
</trkpt>
<trkpt lat="46.231500000" lon="-72.608410000">
<ele>0</ele>
<time>2026-09-04T06:40:06Z</time>
</trkpt>
<trkpt lat="46.230570000" lon="-72.609760000">
<ele>0</ele>
<time>2026-09-04T06:40:07Z</time>
</trkpt>
<trkpt lat="46.230180000" lon="-72.610440000">
<ele>0</ele>
<time>2026-09-04T06:40:08Z</time>
</trkpt>
<trkpt lat="46.229390000" lon="-72.612170000">
<ele>0</ele>
<time>2026-09-04T06:40:09Z</time>
</trkpt>
<trkpt lat="46.229190000" lon="-72.612640000">
<ele>0</ele>
<time>2026-09-04T06:40:10Z</time>
</trkpt>
<trkpt lat="46.228650000" lon="-72.613450000">
<ele>0</ele>
<time>2026-09-04T06:40:11Z</time>
</trkpt>
<trkpt lat="46.227020000" lon="-72.615750000">
<ele>0</ele>
<time>2026-09-04T06:40:12Z</time>
</trkpt>
<trkpt lat="46.226330000" lon="-72.616640000">
<ele>0</ele>
<time>2026-09-04T06:40:13Z</time>
</trkpt>
<trkpt lat="46.225850000" lon="-72.617310000">
<ele>0</ele>
<time>2026-09-04T06:40:14Z</time>
</trkpt>
<trkpt lat="46.225980000" lon="-72.617510000">
<ele>0</ele>
<time>2026-09-04T06:40:15Z</time>
</trkpt>
<trkpt lat="46.225980000" lon="-72.617510000">
<ele>0</ele>
<time>2026-09-04T06:40:16Z</time>
</trkpt>
<trkpt lat="46.226510000" lon="-72.618330000">
<ele>0</ele>
<time>2026-09-04T06:40:17Z</time>
</trkpt>
<trkpt lat="46.226820000" lon="-72.618840000">
<ele>0</ele>
<time>2026-09-04T06:40:18Z</time>
</trkpt>
<trkpt lat="46.227120000" lon="-72.619290000">
<ele>0</ele>
<time>2026-09-04T06:40:19Z</time>
</trkpt>
<trkpt lat="46.227340000" lon="-72.619590000">
<ele>0</ele>
<time>2026-09-04T06:40:20Z</time>
</trkpt>
<trkpt lat="46.227290000" lon="-72.619700000">
<ele>0</ele>
<time>2026-09-04T06:40:21Z</time>
</trkpt>
<trkpt lat="46.227160000" lon="-72.619920000">
<ele>0</ele>
<time>2026-09-04T06:40:22Z</time>
</trkpt>
<trkpt lat="46.227160000" lon="-72.619920000">
<ele>0</ele>
<time>2026-09-04T06:40:23Z</time>
</trkpt>
<trkpt lat="46.226840000" lon="-72.620480000">
<ele>0</ele>
<time>2026-09-04T06:40:24Z</time>
</trkpt>
<trkpt lat="46.224460000" lon="-72.624380000">
<ele>0</ele>
<time>2026-09-04T06:40:25Z</time>
</trkpt>
<trkpt lat="46.224410000" lon="-72.624470000">
<ele>0</ele>
<time>2026-09-04T06:40:26Z</time>
</trkpt>
<trkpt lat="46.224380000" lon="-72.624670000">
<ele>0</ele>
<time>2026-09-04T06:40:27Z</time>
</trkpt>
<trkpt lat="46.224360000" lon="-72.624830000">
<ele>0</ele>
<time>2026-09-04T06:40:28Z</time>
</trkpt>
<trkpt lat="46.224410000" lon="-72.625300000">
<ele>0</ele>
<time>2026-09-04T06:40:29Z</time>
</trkpt>
<trkpt lat="46.224780000" lon="-72.625900000">
<ele>0</ele>
<time>2026-09-04T06:40:30Z</time>
</trkpt>
<trkpt lat="46.224780000" lon="-72.625900000">
<ele>0</ele>
<time>2026-09-04T06:40:31Z</time>
</trkpt>
<trkpt lat="46.225140000" lon="-72.626580000">
<ele>0</ele>
<time>2026-09-04T06:40:32Z</time>
</trkpt>
<trkpt lat="46.225310000" lon="-72.626980000">
<ele>0</ele>
<time>2026-09-04T06:40:33Z</time>
</trkpt>
<trkpt lat="46.226520000" lon="-72.630660000">
<ele>0</ele>
<time>2026-09-04T06:40:34Z</time>
</trkpt>
<trkpt lat="46.227080000" lon="-72.632420000">
<ele>0</ele>
<time>2026-09-04T06:40:35Z</time>
</trkpt>
<trkpt lat="46.227170000" lon="-72.632780000">
<ele>0</ele>
<time>2026-09-04T06:40:36Z</time>
</trkpt>
<trkpt lat="46.227320000" lon="-72.633570000">
<ele>0</ele>
<time>2026-09-04T06:40:37Z</time>
</trkpt>
<trkpt lat="46.227420000" lon="-72.634600000">
<ele>0</ele>
<time>2026-09-04T06:40:38Z</time>
</trkpt>
<trkpt lat="46.227440000" lon="-72.635400000">
<ele>0</ele>
<time>2026-09-04T06:40:39Z</time>
</trkpt>
<trkpt lat="46.227410000" lon="-72.636530000">
<ele>0</ele>
<time>2026-09-04T06:40:40Z</time>
</trkpt>
<trkpt lat="46.227340000" lon="-72.637650000">
<ele>0</ele>
<time>2026-09-04T06:40:41Z</time>
</trkpt>
<trkpt lat="46.227270000" lon="-72.638280000">
<ele>0</ele>
<time>2026-09-04T06:40:42Z</time>
</trkpt>
<trkpt lat="46.227170000" lon="-72.639050000">
<ele>0</ele>
<time>2026-09-04T06:40:43Z</time>
</trkpt>
<trkpt lat="46.226990000" lon="-72.639820000">
<ele>0</ele>
<time>2026-09-04T06:40:44Z</time>
</trkpt>
<trkpt lat="46.226820000" lon="-72.640400000">
<ele>0</ele>
<time>2026-09-04T06:40:45Z</time>
</trkpt>
<trkpt lat="46.226630000" lon="-72.640910000">
<ele>0</ele>
<time>2026-09-04T06:40:46Z</time>
</trkpt>
<trkpt lat="46.226230000" lon="-72.641750000">
<ele>0</ele>
<time>2026-09-04T06:40:47Z</time>
</trkpt>
<trkpt lat="46.225630000" lon="-72.642950000">
<ele>0</ele>
<time>2026-09-04T06:40:48Z</time>
</trkpt>
<trkpt lat="46.225140000" lon="-72.643850000">
<ele>0</ele>
<time>2026-09-04T06:40:49Z</time>
</trkpt>
<trkpt lat="46.224780000" lon="-72.644400000">
<ele>0</ele>
<time>2026-09-04T06:40:50Z</time>
</trkpt>
<trkpt lat="46.224460000" lon="-72.644810000">
<ele>0</ele>
<time>2026-09-04T06:40:51Z</time>
</trkpt>
<trkpt lat="46.224180000" lon="-72.645140000">
<ele>0</ele>
<time>2026-09-04T06:40:52Z</time>
</trkpt>
<trkpt lat="46.223730000" lon="-72.645560000">
<ele>0</ele>
<time>2026-09-04T06:40:53Z</time>
</trkpt>
<trkpt lat="46.223440000" lon="-72.645800000">
<ele>0</ele>
<time>2026-09-04T06:40:54Z</time>
</trkpt>
<trkpt lat="46.223010000" lon="-72.646100000">
<ele>0</ele>
<time>2026-09-04T06:40:55Z</time>
</trkpt>
<trkpt lat="46.222700000" lon="-72.646280000">
<ele>0</ele>
<time>2026-09-04T06:40:56Z</time>
</trkpt>
<trkpt lat="46.222410000" lon="-72.646410000">
<ele>0</ele>
<time>2026-09-04T06:40:57Z</time>
</trkpt>
<trkpt lat="46.222110000" lon="-72.646520000">
<ele>0</ele>
<time>2026-09-04T06:40:58Z</time>
</trkpt>
<trkpt lat="46.221690000" lon="-72.646640000">
<ele>0</ele>
<time>2026-09-04T06:40:59Z</time>
</trkpt>
<trkpt lat="46.221620000" lon="-72.646650000">
<ele>0</ele>
<time>2026-09-04T06:41:00Z</time>
</trkpt>
<trkpt lat="46.221620000" lon="-72.646650000">
<ele>0</ele>
<time>2026-09-04T06:41:01Z</time>
</trkpt>
<trkpt lat="46.221110000" lon="-72.646740000">
<ele>0</ele>
<time>2026-09-04T06:41:02Z</time>
</trkpt>
<trkpt lat="46.220670000" lon="-72.646780000">
<ele>0</ele>
<time>2026-09-04T06:41:03Z</time>
</trkpt>
<trkpt lat="46.220350000" lon="-72.646770000">
<ele>0</ele>
<time>2026-09-04T06:41:04Z</time>
</trkpt>
<trkpt lat="46.219910000" lon="-72.646670000">
<ele>0</ele>
<time>2026-09-04T06:41:05Z</time>
</trkpt>
<trkpt lat="46.216580000" lon="-72.645490000">
<ele>0</ele>
<time>2026-09-04T06:41:06Z</time>
</trkpt>
<trkpt lat="46.214860000" lon="-72.644880000">
<ele>0</ele>
<time>2026-09-04T06:41:07Z</time>
</trkpt>
<trkpt lat="46.212060000" lon="-72.643890000">
<ele>0</ele>
<time>2026-09-04T06:41:08Z</time>
</trkpt>
<trkpt lat="46.211760000" lon="-72.643810000">
<ele>0</ele>
<time>2026-09-04T06:41:09Z</time>
</trkpt>
<trkpt lat="46.211230000" lon="-72.643700000">
<ele>0</ele>
<time>2026-09-04T06:41:10Z</time>
</trkpt>
<trkpt lat="46.210670000" lon="-72.643640000">
<ele>0</ele>
<time>2026-09-04T06:41:11Z</time>
</trkpt>
<trkpt lat="46.209690000" lon="-72.643590000">
<ele>0</ele>
<time>2026-09-04T06:41:12Z</time>
</trkpt>
<trkpt lat="46.205330000" lon="-72.643290000">
<ele>0</ele>
<time>2026-09-04T06:41:13Z</time>
</trkpt>
<trkpt lat="46.204620000" lon="-72.643260000">
<ele>0</ele>
<time>2026-09-04T06:41:14Z</time>
</trkpt>
<trkpt lat="46.204090000" lon="-72.643230000">
<ele>0</ele>
<time>2026-09-04T06:41:15Z</time>
</trkpt>
<trkpt lat="46.203750000" lon="-72.643240000">
<ele>0</ele>
<time>2026-09-04T06:41:16Z</time>
</trkpt>
<trkpt lat="46.203080000" lon="-72.643350000">
<ele>0</ele>
<time>2026-09-04T06:41:17Z</time>
</trkpt>
<trkpt lat="46.202610000" lon="-72.643510000">
<ele>0</ele>
<time>2026-09-04T06:41:18Z</time>
</trkpt>
<trkpt lat="46.202210000" lon="-72.643690000">
<ele>0</ele>
<time>2026-09-04T06:41:19Z</time>
</trkpt>
<trkpt lat="46.201810000" lon="-72.643940000">
<ele>0</ele>
<time>2026-09-04T06:41:20Z</time>
</trkpt>
<trkpt lat="46.201240000" lon="-72.644340000">
<ele>0</ele>
<time>2026-09-04T06:41:21Z</time>
</trkpt>
<trkpt lat="46.200340000" lon="-72.644980000">
<ele>0</ele>
<time>2026-09-04T06:41:22Z</time>
</trkpt>
<trkpt lat="46.199980000" lon="-72.645200000">
<ele>0</ele>
<time>2026-09-04T06:41:23Z</time>
</trkpt>
<trkpt lat="46.199690000" lon="-72.645350000">
<ele>0</ele>
<time>2026-09-04T06:41:24Z</time>
</trkpt>
<trkpt lat="46.198730000" lon="-72.645810000">
<ele>0</ele>
<time>2026-09-04T06:41:25Z</time>
</trkpt>
<trkpt lat="46.195800000" lon="-72.647080000">
<ele>0</ele>
<time>2026-09-04T06:41:26Z</time>
</trkpt>
<trkpt lat="46.194540000" lon="-72.647630000">
<ele>0</ele>
<time>2026-09-04T06:41:27Z</time>
</trkpt>
<trkpt lat="46.194260000" lon="-72.647770000">
<ele>0</ele>
<time>2026-09-04T06:41:28Z</time>
</trkpt>
<trkpt lat="46.193980000" lon="-72.647950000">
<ele>0</ele>
<time>2026-09-04T06:41:29Z</time>
</trkpt>
<trkpt lat="46.193810000" lon="-72.648070000">
<ele>0</ele>
<time>2026-09-04T06:41:30Z</time>
</trkpt>
<trkpt lat="46.193360000" lon="-72.648450000">
<ele>0</ele>
<time>2026-09-04T06:41:31Z</time>
</trkpt>
<trkpt lat="46.192950000" lon="-72.648900000">
<ele>0</ele>
<time>2026-09-04T06:41:32Z</time>
</trkpt>
<trkpt lat="46.192710000" lon="-72.649210000">
<ele>0</ele>
<time>2026-09-04T06:41:33Z</time>
</trkpt>
<trkpt lat="46.192510000" lon="-72.649500000">
<ele>0</ele>
<time>2026-09-04T06:41:34Z</time>
</trkpt>
<trkpt lat="46.192310000" lon="-72.649850000">
<ele>0</ele>
<time>2026-09-04T06:41:35Z</time>
</trkpt>
<trkpt lat="46.192020000" lon="-72.650480000">
<ele>0</ele>
<time>2026-09-04T06:41:36Z</time>
</trkpt>
<trkpt lat="46.191510000" lon="-72.651760000">
<ele>0</ele>
<time>2026-09-04T06:41:37Z</time>
</trkpt>
<trkpt lat="46.191300000" lon="-72.652280000">
<ele>0</ele>
<time>2026-09-04T06:41:38Z</time>
</trkpt>
<trkpt lat="46.191130000" lon="-72.652640000">
<ele>0</ele>
<time>2026-09-04T06:41:39Z</time>
</trkpt>
<trkpt lat="46.190940000" lon="-72.652980000">
<ele>0</ele>
<time>2026-09-04T06:41:40Z</time>
</trkpt>
<trkpt lat="46.190750000" lon="-72.653270000">
<ele>0</ele>
<time>2026-09-04T06:41:41Z</time>
</trkpt>
<trkpt lat="46.190510000" lon="-72.653540000">
<ele>0</ele>
<time>2026-09-04T06:41:42Z</time>
</trkpt>
<trkpt lat="46.190320000" lon="-72.653730000">
<ele>0</ele>
<time>2026-09-04T06:41:43Z</time>
</trkpt>
<trkpt lat="46.190300000" lon="-72.653550000">
<ele>0</ele>
<time>2026-09-04T06:41:44Z</time>
</trkpt>
<trkpt lat="46.190260000" lon="-72.653410000">
<ele>0</ele>
<time>2026-09-04T06:41:45Z</time>
</trkpt>
<trkpt lat="46.190260000" lon="-72.653410000">
<ele>0</ele>
<time>2026-09-04T06:41:46Z</time>
</trkpt>
<trkpt lat="46.190240000" lon="-72.653290000">
<ele>0</ele>
<time>2026-09-04T06:41:47Z</time>
</trkpt>
<trkpt lat="46.190220000" lon="-72.653030000">
<ele>0</ele>
<time>2026-09-04T06:41:48Z</time>
</trkpt>
<trkpt lat="46.190230000" lon="-72.652790000">
<ele>0</ele>
<time>2026-09-04T06:41:49Z</time>
</trkpt>
<trkpt lat="46.190250000" lon="-72.652660000">
<ele>0</ele>
<time>2026-09-04T06:41:50Z</time>
</trkpt>
<trkpt lat="46.190240000" lon="-72.652520000">
<ele>0</ele>
<time>2026-09-04T06:41:51Z</time>
</trkpt>
<trkpt lat="46.190180000" lon="-72.652300000">
<ele>0</ele>
<time>2026-09-04T06:41:52Z</time>
</trkpt>
<trkpt lat="46.190010000" lon="-72.651900000">
<ele>0</ele>
<time>2026-09-04T06:41:53Z</time>
</trkpt>
<trkpt lat="46.189700000" lon="-72.651290000">
<ele>0</ele>
<time>2026-09-04T06:41:54Z</time>
</trkpt>
<trkpt lat="46.186760000" lon="-72.645380000">
<ele>0</ele>
<time>2026-09-04T06:41:55Z</time>
</trkpt>
<trkpt lat="46.183120000" lon="-72.637970000">
<ele>0</ele>
<time>2026-09-04T06:41:56Z</time>
</trkpt>
<trkpt lat="46.180550000" lon="-72.632700000">
<ele>0</ele>
<time>2026-09-04T06:41:57Z</time>
</trkpt>
<trkpt lat="46.177310000" lon="-72.626090000">
<ele>0</ele>
<time>2026-09-04T06:41:58Z</time>
</trkpt>
<trkpt lat="46.177270000" lon="-72.625970000">
<ele>0</ele>
<time>2026-09-04T06:41:59Z</time>
</trkpt>
<trkpt lat="46.177250000" lon="-72.625920000">
<ele>0</ele>
<time>2026-09-04T06:42:00Z</time>
</trkpt>
<trkpt lat="46.177330000" lon="-72.625800000">
<ele>0</ele>
<time>2026-09-04T06:42:01Z</time>
</trkpt>
<trkpt lat="46.177330000" lon="-72.625800000">
<ele>0</ele>
<time>2026-09-04T06:42:02Z</time>
</trkpt>
<trkpt lat="46.178050000" lon="-72.624630000">
<ele>0</ele>
<time>2026-09-04T06:42:03Z</time>
</trkpt>
<trkpt lat="46.178480000" lon="-72.624020000">
<ele>0</ele>
<time>2026-09-04T06:42:04Z</time>
</trkpt>
<trkpt lat="46.179200000" lon="-72.623010000">
<ele>0</ele>
<time>2026-09-04T06:42:05Z</time>
</trkpt>
<trkpt lat="46.180580000" lon="-72.621290000">
<ele>0</ele>
<time>2026-09-04T06:42:06Z</time>
</trkpt>
<trkpt lat="46.182620000" lon="-72.618770000">
<ele>0</ele>
<time>2026-09-04T06:42:07Z</time>
</trkpt>
<trkpt lat="46.183400000" lon="-72.617740000">
<ele>0</ele>
<time>2026-09-04T06:42:08Z</time>
</trkpt>
<trkpt lat="46.183790000" lon="-72.617140000">
<ele>0</ele>
<time>2026-09-04T06:42:09Z</time>
</trkpt>
<trkpt lat="46.186060000" lon="-72.612920000">
<ele>0</ele>
<time>2026-09-04T06:42:10Z</time>
</trkpt>
<trkpt lat="46.186430000" lon="-72.612410000">
<ele>0</ele>
<time>2026-09-04T06:42:11Z</time>
</trkpt>
<trkpt lat="46.186840000" lon="-72.612010000">
<ele>0</ele>
<time>2026-09-04T06:42:12Z</time>
</trkpt>
<trkpt lat="46.187380000" lon="-72.611860000">
<ele>0</ele>
<time>2026-09-04T06:42:13Z</time>
</trkpt>
<trkpt lat="46.191110000" lon="-72.611560000">
<ele>0</ele>
<time>2026-09-04T06:42:14Z</time>
</trkpt>
<trkpt lat="46.193810000" lon="-72.611350000">
<ele>0</ele>
<time>2026-09-04T06:42:15Z</time>
</trkpt>
<trkpt lat="46.195420000" lon="-72.611190000">
<ele>0</ele>
<time>2026-09-04T06:42:16Z</time>
</trkpt>
<trkpt lat="46.207260000" lon="-72.610030000">
<ele>0</ele>
<time>2026-09-04T06:42:17Z</time>
</trkpt>
<trkpt lat="46.208940000" lon="-72.609870000">
<ele>0</ele>
<time>2026-09-04T06:42:18Z</time>
</trkpt>
<trkpt lat="46.210090000" lon="-72.609790000">
<ele>0</ele>
<time>2026-09-04T06:42:19Z</time>
</trkpt>
<trkpt lat="46.211100000" lon="-72.609690000">
<ele>0</ele>
<time>2026-09-04T06:42:20Z</time>
</trkpt>
<trkpt lat="46.212550000" lon="-72.609590000">
<ele>0</ele>
<time>2026-09-04T06:42:21Z</time>
</trkpt>
<trkpt lat="46.213990000" lon="-72.609500000">
<ele>0</ele>
<time>2026-09-04T06:42:22Z</time>
</trkpt>
<trkpt lat="46.214270000" lon="-72.609510000">
<ele>0</ele>
<time>2026-09-04T06:42:23Z</time>
</trkpt>
<trkpt lat="46.214530000" lon="-72.609590000">
<ele>0</ele>
<time>2026-09-04T06:42:24Z</time>
</trkpt>
<trkpt lat="46.214860000" lon="-72.609750000">
<ele>0</ele>
<time>2026-09-04T06:42:25Z</time>
</trkpt>
<trkpt lat="46.215080000" lon="-72.609890000">
<ele>0</ele>
<time>2026-09-04T06:42:26Z</time>
</trkpt>
<trkpt lat="46.215460000" lon="-72.610230000">
<ele>0</ele>
<time>2026-09-04T06:42:27Z</time>
</trkpt>
<trkpt lat="46.215750000" lon="-72.610540000">
<ele>0</ele>
<time>2026-09-04T06:42:28Z</time>
</trkpt>
<trkpt lat="46.216010000" lon="-72.610920000">
<ele>0</ele>
<time>2026-09-04T06:42:29Z</time>
</trkpt>
<trkpt lat="46.216100000" lon="-72.611170000">
<ele>0</ele>
<time>2026-09-04T06:42:30Z</time>
</trkpt>
<trkpt lat="46.216230000" lon="-72.611510000">
<ele>0</ele>
<time>2026-09-04T06:42:31Z</time>
</trkpt>
<trkpt lat="46.216760000" lon="-72.613160000">
<ele>0</ele>
<time>2026-09-04T06:42:32Z</time>
</trkpt>
<trkpt lat="46.216930000" lon="-72.613710000">
<ele>0</ele>
<time>2026-09-04T06:42:33Z</time>
</trkpt>
<trkpt lat="46.217210000" lon="-72.614860000">
<ele>0</ele>
<time>2026-09-04T06:42:34Z</time>
</trkpt>
<trkpt lat="46.217780000" lon="-72.616460000">
<ele>0</ele>
<time>2026-09-04T06:42:35Z</time>
</trkpt>
<trkpt lat="46.217900000" lon="-72.616680000">
<ele>0</ele>
<time>2026-09-04T06:42:36Z</time>
</trkpt>
<trkpt lat="46.218060000" lon="-72.616970000">
<ele>0</ele>
<time>2026-09-04T06:42:37Z</time>
</trkpt>
<trkpt lat="46.218260000" lon="-72.617250000">
<ele>0</ele>
<time>2026-09-04T06:42:38Z</time>
</trkpt>
<trkpt lat="46.218390000" lon="-72.617440000">
<ele>0</ele>
<time>2026-09-04T06:42:39Z</time>
</trkpt>
<trkpt lat="46.218670000" lon="-72.617760000">
<ele>0</ele>
<time>2026-09-04T06:42:40Z</time>
</trkpt>
<trkpt lat="46.219100000" lon="-72.618110000">
<ele>0</ele>
<time>2026-09-04T06:42:41Z</time>
</trkpt>
<trkpt lat="46.219710000" lon="-72.618680000">
<ele>0</ele>
<time>2026-09-04T06:42:42Z</time>
</trkpt>
<trkpt lat="46.220270000" lon="-72.619120000">
<ele>0</ele>
<time>2026-09-04T06:42:43Z</time>
</trkpt>
<trkpt lat="46.220780000" lon="-72.619590000">
<ele>0</ele>
<time>2026-09-04T06:42:44Z</time>
</trkpt>
<trkpt lat="46.221190000" lon="-72.620140000">
<ele>0</ele>
<time>2026-09-04T06:42:45Z</time>
</trkpt>
<trkpt lat="46.221910000" lon="-72.621210000">
<ele>0</ele>
<time>2026-09-04T06:42:46Z</time>
</trkpt>
<trkpt lat="46.222070000" lon="-72.621450000">
<ele>0</ele>
<time>2026-09-04T06:42:47Z</time>
</trkpt>
<trkpt lat="46.222400000" lon="-72.622130000">
<ele>0</ele>
<time>2026-09-04T06:42:48Z</time>
</trkpt>
<trkpt lat="46.222600000" lon="-72.622560000">
<ele>0</ele>
<time>2026-09-04T06:42:49Z</time>
</trkpt>
<trkpt lat="46.222830000" lon="-72.623010000">
<ele>0</ele>
<time>2026-09-04T06:42:50Z</time>
</trkpt>
<trkpt lat="46.223130000" lon="-72.623430000">
<ele>0</ele>
<time>2026-09-04T06:42:51Z</time>
</trkpt>
<trkpt lat="46.223650000" lon="-72.624150000">
<ele>0</ele>
<time>2026-09-04T06:42:52Z</time>
</trkpt>
<trkpt lat="46.224140000" lon="-72.624900000">
<ele>0</ele>
<time>2026-09-04T06:42:53Z</time>
</trkpt>
<trkpt lat="46.224230000" lon="-72.624750000">
<ele>0</ele>
<time>2026-09-04T06:42:54Z</time>
</trkpt>
<trkpt lat="46.224230000" lon="-72.624750000">
<ele>0</ele>
<time>2026-09-04T06:42:55Z</time>
</trkpt>
<trkpt lat="46.226390000" lon="-72.621230000">
<ele>0</ele>
<time>2026-09-04T06:42:56Z</time>
</trkpt>
<trkpt lat="46.227010000" lon="-72.620190000">
<ele>0</ele>
<time>2026-09-04T06:42:57Z</time>
</trkpt>
<trkpt lat="46.227290000" lon="-72.619700000">
<ele>0</ele>
<time>2026-09-04T06:42:58Z</time>
</trkpt>
<trkpt lat="46.227340000" lon="-72.619590000">
<ele>0</ele>
<time>2026-09-04T06:42:59Z</time>
</trkpt>
<trkpt lat="46.227410000" lon="-72.619660000">
<ele>0</ele>
<time>2026-09-04T06:43:00Z</time>
</trkpt>
<trkpt lat="46.227490000" lon="-72.619810000">
<ele>0</ele>
<time>2026-09-04T06:43:01Z</time>
</trkpt>
<trkpt lat="46.227530000" lon="-72.619940000">
<ele>0</ele>
<time>2026-09-04T06:43:02Z</time>
</trkpt>
<trkpt lat="46.227560000" lon="-72.620170000">
<ele>0</ele>
<time>2026-09-04T06:43:03Z</time>
</trkpt>
<trkpt lat="46.227540000" lon="-72.620590000">
<ele>0</ele>
<time>2026-09-04T06:43:04Z</time>
</trkpt>
<trkpt lat="46.227490000" lon="-72.621000000">
<ele>0</ele>
<time>2026-09-04T06:43:05Z</time>
</trkpt>
<trkpt lat="46.227500000" lon="-72.621250000">
<ele>0</ele>
<time>2026-09-04T06:43:06Z</time>
</trkpt>
<trkpt lat="46.227620000" lon="-72.621620000">
<ele>0</ele>
<time>2026-09-04T06:43:07Z</time>
</trkpt>
<trkpt lat="46.227620000" lon="-72.621620000">
<ele>0</ele>
<time>2026-09-04T06:43:08Z</time>
</trkpt>
<trkpt lat="46.227740000" lon="-72.621820000">
<ele>0</ele>
<time>2026-09-04T06:43:09Z</time>
</trkpt>
<trkpt lat="46.228120000" lon="-72.622350000">
<ele>0</ele>
<time>2026-09-04T06:43:10Z</time>
</trkpt>
<trkpt lat="46.228520000" lon="-72.622820000">
<ele>0</ele>
<time>2026-09-04T06:43:11Z</time>
</trkpt>
<trkpt lat="46.229020000" lon="-72.623420000">
<ele>0</ele>
<time>2026-09-04T06:43:12Z</time>
</trkpt>
<trkpt lat="46.229320000" lon="-72.623780000">
<ele>0</ele>
<time>2026-09-04T06:43:13Z</time>
</trkpt>
<trkpt lat="46.229680000" lon="-72.624270000">
<ele>0</ele>
<time>2026-09-04T06:43:14Z</time>
</trkpt>
<trkpt lat="46.229800000" lon="-72.624540000">
<ele>0</ele>
<time>2026-09-04T06:43:15Z</time>
</trkpt>
<trkpt lat="46.230540000" lon="-72.626580000">
<ele>0</ele>
<time>2026-09-04T06:43:16Z</time>
</trkpt>
<trkpt lat="46.230870000" lon="-72.627440000">
<ele>0</ele>
<time>2026-09-04T06:43:17Z</time>
</trkpt>
<trkpt lat="46.231470000" lon="-72.628760000">
<ele>0</ele>
<time>2026-09-04T06:43:18Z</time>
</trkpt>
<trkpt lat="46.231960000" lon="-72.629630000">
<ele>0</ele>
<time>2026-09-04T06:43:19Z</time>
</trkpt>
<trkpt lat="46.232840000" lon="-72.631330000">
<ele>0</ele>
<time>2026-09-04T06:43:20Z</time>
</trkpt>
<trkpt lat="46.233150000" lon="-72.631980000">
<ele>0</ele>
<time>2026-09-04T06:43:21Z</time>
</trkpt>
<trkpt lat="46.233250000" lon="-72.632440000">
<ele>0</ele>
<time>2026-09-04T06:43:22Z</time>
</trkpt>
<trkpt lat="46.233550000" lon="-72.634460000">
<ele>0</ele>
<time>2026-09-04T06:43:23Z</time>
</trkpt>
<trkpt lat="46.233670000" lon="-72.635120000">
<ele>0</ele>
<time>2026-09-04T06:43:24Z</time>
</trkpt>
<trkpt lat="46.233960000" lon="-72.636470000">
<ele>0</ele>
<time>2026-09-04T06:43:25Z</time>
</trkpt>
<trkpt lat="46.234260000" lon="-72.637420000">
<ele>0</ele>
<time>2026-09-04T06:43:26Z</time>
</trkpt>
<trkpt lat="46.234400000" lon="-72.637820000">
<ele>0</ele>
<time>2026-09-04T06:43:27Z</time>
</trkpt>
<trkpt lat="46.234740000" lon="-72.638540000">
<ele>0</ele>
<time>2026-09-04T06:43:28Z</time>
</trkpt>
<trkpt lat="46.235050000" lon="-72.639020000">
<ele>0</ele>
<time>2026-09-04T06:43:29Z</time>
</trkpt>
<trkpt lat="46.235330000" lon="-72.639360000">
<ele>0</ele>
<time>2026-09-04T06:43:30Z</time>
</trkpt>
<trkpt lat="46.235790000" lon="-72.639820000">
<ele>0</ele>
<time>2026-09-04T06:43:31Z</time>
</trkpt>
<trkpt lat="46.236440000" lon="-72.640710000">
<ele>0</ele>
<time>2026-09-04T06:43:32Z</time>
</trkpt>
<trkpt lat="46.236640000" lon="-72.640990000">
<ele>0</ele>
<time>2026-09-04T06:43:33Z</time>
</trkpt>
<trkpt lat="46.237160000" lon="-72.641870000">
<ele>0</ele>
<time>2026-09-04T06:43:34Z</time>
</trkpt>
<trkpt lat="46.237640000" lon="-72.642640000">
<ele>0</ele>
<time>2026-09-04T06:43:35Z</time>
</trkpt>
<trkpt lat="46.238490000" lon="-72.643760000">
<ele>0</ele>
<time>2026-09-04T06:43:36Z</time>
</trkpt>
<trkpt lat="46.239330000" lon="-72.644690000">
<ele>0</ele>
<time>2026-09-04T06:43:37Z</time>
</trkpt>
<trkpt lat="46.241900000" lon="-72.647460000">
<ele>0</ele>
<time>2026-09-04T06:43:38Z</time>
</trkpt>
<trkpt lat="46.242860000" lon="-72.648480000">
<ele>0</ele>
<time>2026-09-04T06:43:39Z</time>
</trkpt>
<trkpt lat="46.243250000" lon="-72.648850000">
<ele>0</ele>
<time>2026-09-04T06:43:40Z</time>
</trkpt>
<trkpt lat="46.243380000" lon="-72.648960000">
<ele>0</ele>
<time>2026-09-04T06:43:41Z</time>
</trkpt>
<trkpt lat="46.243630000" lon="-72.649110000">
<ele>0</ele>
<time>2026-09-04T06:43:42Z</time>
</trkpt>
<trkpt lat="46.244430000" lon="-72.649470000">
<ele>0</ele>
<time>2026-09-04T06:43:43Z</time>
</trkpt>
<trkpt lat="46.244860000" lon="-72.649750000">
<ele>0</ele>
<time>2026-09-04T06:43:44Z</time>
</trkpt>
<trkpt lat="46.245360000" lon="-72.650140000">
<ele>0</ele>
<time>2026-09-04T06:43:45Z</time>
</trkpt>
<trkpt lat="46.245550000" lon="-72.650250000">
<ele>0</ele>
<time>2026-09-04T06:43:46Z</time>
</trkpt>
<trkpt lat="46.245660000" lon="-72.650280000">
<ele>0</ele>
<time>2026-09-04T06:43:47Z</time>
</trkpt>
<trkpt lat="46.246060000" lon="-72.650240000">
<ele>0</ele>
<time>2026-09-04T06:43:48Z</time>
</trkpt>
<trkpt lat="46.247050000" lon="-72.649970000">
<ele>0</ele>
<time>2026-09-04T06:43:49Z</time>
</trkpt>
<trkpt lat="46.247860000" lon="-72.649670000">
<ele>0</ele>
<time>2026-09-04T06:43:50Z</time>
</trkpt>
<trkpt lat="46.248340000" lon="-72.649500000">
<ele>0</ele>
<time>2026-09-04T06:43:51Z</time>
</trkpt>
<trkpt lat="46.248700000" lon="-72.649300000">
<ele>0</ele>
<time>2026-09-04T06:43:52Z</time>
</trkpt>
<trkpt lat="46.249000000" lon="-72.649110000">
<ele>0</ele>
<time>2026-09-04T06:43:53Z</time>
</trkpt>
<trkpt lat="46.249230000" lon="-72.648920000">
<ele>0</ele>
<time>2026-09-04T06:43:54Z</time>
</trkpt>
<trkpt lat="46.249400000" lon="-72.648750000">
<ele>0</ele>
<time>2026-09-04T06:43:55Z</time>
</trkpt>
<trkpt lat="46.249250000" lon="-72.648220000">
<ele>0</ele>
<time>2026-09-04T06:43:56Z</time>
</trkpt>
<trkpt lat="46.249250000" lon="-72.648220000">
<ele>0</ele>
<time>2026-09-04T06:43:57Z</time>
</trkpt>
<trkpt lat="46.248580000" lon="-72.645820000">
<ele>0</ele>
<time>2026-09-04T06:43:58Z</time>
</trkpt>
<trkpt lat="46.248450000" lon="-72.645430000">
<ele>0</ele>
<time>2026-09-04T06:43:59Z</time>
</trkpt>
<trkpt lat="46.248430000" lon="-72.645240000">
<ele>0</ele>
<time>2026-09-04T06:44:00Z</time>
</trkpt>
<trkpt lat="46.248460000" lon="-72.645110000">
<ele>0</ele>
<time>2026-09-04T06:44:01Z</time>
</trkpt>
<trkpt lat="46.248580000" lon="-72.644920000">
<ele>0</ele>
<time>2026-09-04T06:44:02Z</time>
</trkpt>
<trkpt lat="46.248650000" lon="-72.644820000">
<ele>0</ele>
<time>2026-09-04T06:44:03Z</time>
</trkpt>
<trkpt lat="46.248650000" lon="-72.644820000">
<ele>0</ele>
<time>2026-09-04T06:44:04Z</time>
</trkpt>
<trkpt lat="46.248830000" lon="-72.644540000">
<ele>0</ele>
<time>2026-09-04T06:44:05Z</time>
</trkpt>
<trkpt lat="46.249210000" lon="-72.643850000">
<ele>0</ele>
<time>2026-09-04T06:44:06Z</time>
</trkpt>
<trkpt lat="46.249590000" lon="-72.642930000">
<ele>0</ele>
<time>2026-09-04T06:44:07Z</time>
</trkpt>
<trkpt lat="46.249970000" lon="-72.642210000">
<ele>0</ele>
<time>2026-09-04T06:44:08Z</time>
</trkpt>
<trkpt lat="46.251840000" lon="-72.638780000">
<ele>0</ele>
<time>2026-09-04T06:44:09Z</time>
</trkpt>
<trkpt lat="46.252520000" lon="-72.637570000">
<ele>0</ele>
<time>2026-09-04T06:44:10Z</time>
</trkpt>
<trkpt lat="46.254000000" lon="-72.635290000">
<ele>0</ele>
<time>2026-09-04T06:44:11Z</time>
</trkpt>
<trkpt lat="46.254490000" lon="-72.634540000">
<ele>0</ele>
<time>2026-09-04T06:44:12Z</time>
</trkpt>
<trkpt lat="46.255280000" lon="-72.633460000">
<ele>0</ele>
<time>2026-09-04T06:44:13Z</time>
</trkpt>
<trkpt lat="46.255620000" lon="-72.633000000">
<ele>0</ele>
<time>2026-09-04T06:44:14Z</time>
</trkpt>
<trkpt lat="46.255850000" lon="-72.632770000">
<ele>0</ele>
<time>2026-09-04T06:44:15Z</time>
</trkpt>
<trkpt lat="46.256200000" lon="-72.632430000">
<ele>0</ele>
<time>2026-09-04T06:44:16Z</time>
</trkpt>
<trkpt lat="46.256450000" lon="-72.632140000">
<ele>0</ele>
<time>2026-09-04T06:44:17Z</time>
</trkpt>
<trkpt lat="46.256850000" lon="-72.631610000">
<ele>0</ele>
<time>2026-09-04T06:44:18Z</time>
</trkpt>
<trkpt lat="46.257850000" lon="-72.630230000">
<ele>0</ele>
<time>2026-09-04T06:44:19Z</time>
</trkpt>
<trkpt lat="46.258340000" lon="-72.629590000">
<ele>0</ele>
<time>2026-09-04T06:44:20Z</time>
</trkpt>
<trkpt lat="46.258790000" lon="-72.628880000">
<ele>0</ele>
<time>2026-09-04T06:44:21Z</time>
</trkpt>
<trkpt lat="46.259070000" lon="-72.628500000">
<ele>0</ele>
<time>2026-09-04T06:44:22Z</time>
</trkpt>
<trkpt lat="46.259330000" lon="-72.628200000">
<ele>0</ele>
<time>2026-09-04T06:44:23Z</time>
</trkpt>
<trkpt lat="46.259420000" lon="-72.628080000">
<ele>0</ele>
<time>2026-09-04T06:44:24Z</time>
</trkpt>
<trkpt lat="46.259500000" lon="-72.628020000">
<ele>0</ele>
<time>2026-09-04T06:44:25Z</time>
</trkpt>
<trkpt lat="46.259630000" lon="-72.627950000">
<ele>0</ele>
<time>2026-09-04T06:44:26Z</time>
</trkpt>
<trkpt lat="46.259860000" lon="-72.627910000">
<ele>0</ele>
<time>2026-09-04T06:44:27Z</time>
</trkpt>
<trkpt lat="46.260270000" lon="-72.627900000">
<ele>0</ele>
<time>2026-09-04T06:44:28Z</time>
</trkpt>
<trkpt lat="46.260380000" lon="-72.627870000">
<ele>0</ele>
<time>2026-09-04T06:44:29Z</time>
</trkpt>
<trkpt lat="46.260560000" lon="-72.627750000">
<ele>0</ele>
<time>2026-09-04T06:44:30Z</time>
</trkpt>
<trkpt lat="46.261210000" lon="-72.627190000">
<ele>0</ele>
<time>2026-09-04T06:44:31Z</time>
</trkpt>
<trkpt lat="46.261740000" lon="-72.626660000">
<ele>0</ele>
<time>2026-09-04T06:44:32Z</time>
</trkpt>
<trkpt lat="46.264090000" lon="-72.624350000">
<ele>0</ele>
<time>2026-09-04T06:44:33Z</time>
</trkpt>
<trkpt lat="46.267100000" lon="-72.621550000">
<ele>0</ele>
<time>2026-09-04T06:44:34Z</time>
</trkpt>
<trkpt lat="46.268990000" lon="-72.620060000">
<ele>0</ele>
<time>2026-09-04T06:44:35Z</time>
</trkpt>
<trkpt lat="46.269230000" lon="-72.619890000">
<ele>0</ele>
<time>2026-09-04T06:44:36Z</time>
</trkpt>
<trkpt lat="46.269440000" lon="-72.619690000">
<ele>0</ele>
<time>2026-09-04T06:44:37Z</time>
</trkpt>
<trkpt lat="46.269790000" lon="-72.619350000">
<ele>0</ele>
<time>2026-09-04T06:44:38Z</time>
</trkpt>
<trkpt lat="46.270290000" lon="-72.618800000">
<ele>0</ele>
<time>2026-09-04T06:44:39Z</time>
</trkpt>
<trkpt lat="46.270590000" lon="-72.618470000">
<ele>0</ele>
<time>2026-09-04T06:44:40Z</time>
</trkpt>
<trkpt lat="46.270710000" lon="-72.618280000">
<ele>0</ele>
<time>2026-09-04T06:44:41Z</time>
</trkpt>
<trkpt lat="46.270800000" lon="-72.618040000">
<ele>0</ele>
<time>2026-09-04T06:44:42Z</time>
</trkpt>
<trkpt lat="46.270860000" lon="-72.617810000">
<ele>0</ele>
<time>2026-09-04T06:44:43Z</time>
</trkpt>
<trkpt lat="46.270880000" lon="-72.617520000">
<ele>0</ele>
<time>2026-09-04T06:44:44Z</time>
</trkpt>
<trkpt lat="46.270850000" lon="-72.617220000">
<ele>0</ele>
<time>2026-09-04T06:44:45Z</time>
</trkpt>
<trkpt lat="46.270760000" lon="-72.617010000">
<ele>0</ele>
<time>2026-09-04T06:44:46Z</time>
</trkpt>
<trkpt lat="46.269440000" lon="-72.615270000">
<ele>0</ele>
<time>2026-09-04T06:44:47Z</time>
</trkpt>
<trkpt lat="46.269870000" lon="-72.614620000">
<ele>0</ele>
<time>2026-09-04T06:44:48Z</time>
</trkpt>
<trkpt lat="46.269870000" lon="-72.614620000">
<ele>0</ele>
<time>2026-09-04T06:44:49Z</time>
</trkpt>
<trkpt lat="46.270400000" lon="-72.613690000">
<ele>0</ele>
<time>2026-09-04T06:44:50Z</time>
</trkpt>
<trkpt lat="46.270790000" lon="-72.613000000">
<ele>0</ele>
<time>2026-09-04T06:44:51Z</time>
</trkpt>
<trkpt lat="46.271010000" lon="-72.612550000">
<ele>0</ele>
<time>2026-09-04T06:44:52Z</time>
</trkpt>
<trkpt lat="46.271250000" lon="-72.611920000">
<ele>0</ele>
<time>2026-09-04T06:44:53Z</time>
</trkpt>
<trkpt lat="46.271330000" lon="-72.611570000">
<ele>0</ele>
<time>2026-09-04T06:44:54Z</time>
</trkpt>
<trkpt lat="46.271370000" lon="-72.611180000">
<ele>0</ele>
<time>2026-09-04T06:44:55Z</time>
</trkpt>
<trkpt lat="46.271470000" lon="-72.610570000">
<ele>0</ele>
<time>2026-09-04T06:44:56Z</time>
</trkpt>
<trkpt lat="46.271540000" lon="-72.610380000">
<ele>0</ele>
<time>2026-09-04T06:44:57Z</time>
</trkpt>
<trkpt lat="46.272160000" lon="-72.609450000">
<ele>0</ele>
<time>2026-09-04T06:44:58Z</time>
</trkpt>
<trkpt lat="46.272660000" lon="-72.608790000">
<ele>0</ele>
<time>2026-09-04T06:44:59Z</time>
</trkpt>
<trkpt lat="46.274220000" lon="-72.606110000">
<ele>0</ele>
<time>2026-09-04T06:45:00Z</time>
</trkpt>
<trkpt lat="46.274510000" lon="-72.605380000">
<ele>0</ele>
<time>2026-09-04T06:45:01Z</time>
</trkpt>
<trkpt lat="46.274730000" lon="-72.604830000">
<ele>0</ele>
<time>2026-09-04T06:45:02Z</time>
</trkpt>
<trkpt lat="46.275160000" lon="-72.603310000">
<ele>0</ele>
<time>2026-09-04T06:45:03Z</time>
</trkpt>
<trkpt lat="46.275160000" lon="-72.602980000">
<ele>0</ele>
<time>2026-09-04T06:45:04Z</time>
</trkpt>
<trkpt lat="46.274950000" lon="-72.602680000">
<ele>0</ele>
<time>2026-09-04T06:45:05Z</time>
</trkpt>
<trkpt lat="46.273820000" lon="-72.601200000">
<ele>0</ele>
<time>2026-09-04T06:45:06Z</time>
</trkpt>
<trkpt lat="46.274280000" lon="-72.600240000">
<ele>0</ele>
<time>2026-09-04T06:45:07Z</time>
</trkpt>
<trkpt lat="46.274280000" lon="-72.600240000">
<ele>0</ele>
<time>2026-09-04T06:45:08Z</time>
</trkpt>
<trkpt lat="46.274700000" lon="-72.599120000">
<ele>0</ele>
<time>2026-09-04T06:45:09Z</time>
</trkpt>
<trkpt lat="46.274940000" lon="-72.598150000">
<ele>0</ele>
<time>2026-09-04T06:45:10Z</time>
</trkpt>
<trkpt lat="46.275060000" lon="-72.597700000">
<ele>0</ele>
<time>2026-09-04T06:45:11Z</time>
</trkpt>
<trkpt lat="46.275410000" lon="-72.596940000">
<ele>0</ele>
<time>2026-09-04T06:45:12Z</time>
</trkpt>
<trkpt lat="46.275580000" lon="-72.596590000">
<ele>0</ele>
<time>2026-09-04T06:45:13Z</time>
</trkpt>
<trkpt lat="46.275860000" lon="-72.596200000">
<ele>0</ele>
<time>2026-09-04T06:45:14Z</time>
</trkpt>
<trkpt lat="46.276040000" lon="-72.595900000">
<ele>0</ele>
<time>2026-09-04T06:45:15Z</time>
</trkpt>
<trkpt lat="46.276640000" lon="-72.594970000">
<ele>0</ele>
<time>2026-09-04T06:45:16Z</time>
</trkpt>
<trkpt lat="46.276870000" lon="-72.594550000">
<ele>0</ele>
<time>2026-09-04T06:45:17Z</time>
</trkpt>
<trkpt lat="46.277710000" lon="-72.593180000">
<ele>0</ele>
<time>2026-09-04T06:45:18Z</time>
</trkpt>
<trkpt lat="46.279520000" lon="-72.589780000">
<ele>0</ele>
<time>2026-09-04T06:45:19Z</time>
</trkpt>
<trkpt lat="46.280020000" lon="-72.588790000">
<ele>0</ele>
<time>2026-09-04T06:45:20Z</time>
</trkpt>
<trkpt lat="46.280310000" lon="-72.588040000">
<ele>0</ele>
<time>2026-09-04T06:45:21Z</time>
</trkpt>
<trkpt lat="46.280700000" lon="-72.587220000">
<ele>0</ele>
<time>2026-09-04T06:45:22Z</time>
</trkpt>
<trkpt lat="46.281010000" lon="-72.586470000">
<ele>0</ele>
<time>2026-09-04T06:45:23Z</time>
</trkpt>
<trkpt lat="46.281610000" lon="-72.585080000">
<ele>0</ele>
<time>2026-09-04T06:45:24Z</time>
</trkpt>
<trkpt lat="46.282350000" lon="-72.583430000">
<ele>0</ele>
<time>2026-09-04T06:45:25Z</time>
</trkpt>
<trkpt lat="46.283100000" lon="-72.581680000">
<ele>0</ele>
<time>2026-09-04T06:45:26Z</time>
</trkpt>
<trkpt lat="46.284030000" lon="-72.579420000">
<ele>0</ele>
<time>2026-09-04T06:45:27Z</time>
</trkpt>
<trkpt lat="46.284600000" lon="-72.578060000">
<ele>0</ele>
<time>2026-09-04T06:45:28Z</time>
</trkpt>
<trkpt lat="46.284660000" lon="-72.577860000">
<ele>0</ele>
<time>2026-09-04T06:45:29Z</time>
</trkpt>
<trkpt lat="46.284800000" lon="-72.577380000">
<ele>0</ele>
<time>2026-09-04T06:45:30Z</time>
</trkpt>
<trkpt lat="46.284870000" lon="-72.577000000">
<ele>0</ele>
<time>2026-09-04T06:45:31Z</time>
</trkpt>
<trkpt lat="46.285120000" lon="-72.575790000">
<ele>0</ele>
<time>2026-09-04T06:45:32Z</time>
</trkpt>
<trkpt lat="46.285840000" lon="-72.572570000">
<ele>0</ele>
<time>2026-09-04T06:45:33Z</time>
</trkpt>
<trkpt lat="46.287160000" lon="-72.567010000">
<ele>0</ele>
<time>2026-09-04T06:45:34Z</time>
</trkpt>
<trkpt lat="46.287380000" lon="-72.565960000">
<ele>0</ele>
<time>2026-09-04T06:45:35Z</time>
</trkpt>
<trkpt lat="46.287710000" lon="-72.565190000">
<ele>0</ele>
<time>2026-09-04T06:45:36Z</time>
</trkpt>
<trkpt lat="46.287970000" lon="-72.564740000">
<ele>0</ele>
<time>2026-09-04T06:45:37Z</time>
</trkpt>
<trkpt lat="46.289410000" lon="-72.562700000">
<ele>0</ele>
<time>2026-09-04T06:45:38Z</time>
</trkpt>
<trkpt lat="46.292070000" lon="-72.558810000">
<ele>0</ele>
<time>2026-09-04T06:45:39Z</time>
</trkpt>
<trkpt lat="46.294610000" lon="-72.555080000">
<ele>0</ele>
<time>2026-09-04T06:45:40Z</time>
</trkpt>
<trkpt lat="46.296850000" lon="-72.551600000">
<ele>0</ele>
<time>2026-09-04T06:45:41Z</time>
</trkpt>
<trkpt lat="46.297480000" lon="-72.550770000">
<ele>0</ele>
<time>2026-09-04T06:45:42Z</time>
</trkpt>
<trkpt lat="46.298940000" lon="-72.548950000">
<ele>0</ele>
<time>2026-09-04T06:45:43Z</time>
</trkpt>
<trkpt lat="46.299760000" lon="-72.547990000">
<ele>0</ele>
<time>2026-09-04T06:45:44Z</time>
</trkpt>
<trkpt lat="46.300030000" lon="-72.547620000">
<ele>0</ele>
<time>2026-09-04T06:45:45Z</time>
</trkpt>
<trkpt lat="46.300170000" lon="-72.547390000">
<ele>0</ele>
<time>2026-09-04T06:45:46Z</time>
</trkpt>
<trkpt lat="46.300330000" lon="-72.547100000">
<ele>0</ele>
<time>2026-09-04T06:45:47Z</time>
</trkpt>
<trkpt lat="46.300470000" lon="-72.546800000">
<ele>0</ele>
<time>2026-09-04T06:45:48Z</time>
</trkpt>
<trkpt lat="46.300600000" lon="-72.546450000">
<ele>0</ele>
<time>2026-09-04T06:45:49Z</time>
</trkpt>
<trkpt lat="46.300740000" lon="-72.546040000">
<ele>0</ele>
<time>2026-09-04T06:45:50Z</time>
</trkpt>
<trkpt lat="46.300820000" lon="-72.545680000">
<ele>0</ele>
<time>2026-09-04T06:45:51Z</time>
</trkpt>
<trkpt lat="46.300820000" lon="-72.545680000">
<ele>0</ele>
<time>2026-09-04T06:45:52Z</time>
</trkpt>
<trkpt lat="46.301370000" lon="-72.542830000">
<ele>0</ele>
<time>2026-09-04T06:45:53Z</time>
</trkpt>
<trkpt lat="46.301680000" lon="-72.541200000">
<ele>0</ele>
<time>2026-09-04T06:45:54Z</time>
</trkpt>
<trkpt lat="46.302410000" lon="-72.537510000">
<ele>0</ele>
<time>2026-09-04T06:45:55Z</time>
</trkpt>
<trkpt lat="46.302590000" lon="-72.536670000">
<ele>0</ele>
<time>2026-09-04T06:45:56Z</time>
</trkpt>
<trkpt lat="46.302760000" lon="-72.536130000">
<ele>0</ele>
<time>2026-09-04T06:45:57Z</time>
</trkpt>
<trkpt lat="46.302980000" lon="-72.535590000">
<ele>0</ele>
<time>2026-09-04T06:45:58Z</time>
</trkpt>
<trkpt lat="46.304120000" lon="-72.532880000">
<ele>0</ele>
<time>2026-09-04T06:45:59Z</time>
</trkpt>
<trkpt lat="46.304750000" lon="-72.531470000">
<ele>0</ele>
<time>2026-09-04T06:46:00Z</time>
</trkpt>
<trkpt lat="46.304750000" lon="-72.531470000">
<ele>0</ele>
<time>2026-09-04T06:46:01Z</time>
</trkpt>
<trkpt lat="46.305090000" lon="-72.530690000">
<ele>0</ele>
<time>2026-09-04T06:46:02Z</time>
</trkpt>
<trkpt lat="46.305270000" lon="-72.530330000">
<ele>0</ele>
<time>2026-09-04T06:46:03Z</time>
</trkpt>
<trkpt lat="46.305580000" lon="-72.529810000">
<ele>0</ele>
<time>2026-09-04T06:46:04Z</time>
</trkpt>
<trkpt lat="46.305900000" lon="-72.529430000">
<ele>0</ele>
<time>2026-09-04T06:46:05Z</time>
</trkpt>
<trkpt lat="46.306190000" lon="-72.529190000">
<ele>0</ele>
<time>2026-09-04T06:46:06Z</time>
</trkpt>
<trkpt lat="46.306350000" lon="-72.529070000">
<ele>0</ele>
<time>2026-09-04T06:46:07Z</time>
</trkpt>
<trkpt lat="46.306580000" lon="-72.528940000">
<ele>0</ele>
<time>2026-09-04T06:46:08Z</time>
</trkpt>
<trkpt lat="46.306800000" lon="-72.528840000">
<ele>0</ele>
<time>2026-09-04T06:46:09Z</time>
</trkpt>
<trkpt lat="46.307100000" lon="-72.528750000">
<ele>0</ele>
<time>2026-09-04T06:46:10Z</time>
</trkpt>
<trkpt lat="46.307550000" lon="-72.528650000">
<ele>0</ele>
<time>2026-09-04T06:46:11Z</time>
</trkpt>
<trkpt lat="46.310200000" lon="-72.528090000">
<ele>0</ele>
<time>2026-09-04T06:46:12Z</time>
</trkpt>
<trkpt lat="46.314000000" lon="-72.527300000">
<ele>0</ele>
<time>2026-09-04T06:46:13Z</time>
</trkpt>
<trkpt lat="46.315900000" lon="-72.526900000">
<ele>0</ele>
<time>2026-09-04T06:46:14Z</time>
</trkpt>
<trkpt lat="46.317180000" lon="-72.526610000">
<ele>0</ele>
<time>2026-09-04T06:46:15Z</time>
</trkpt>
<trkpt lat="46.317510000" lon="-72.526510000">
<ele>0</ele>
<time>2026-09-04T06:46:16Z</time>
</trkpt>
<trkpt lat="46.317800000" lon="-72.526400000">
<ele>0</ele>
<time>2026-09-04T06:46:17Z</time>
</trkpt>
<trkpt lat="46.318200000" lon="-72.526200000">
<ele>0</ele>
<time>2026-09-04T06:46:18Z</time>
</trkpt>
<trkpt lat="46.319250000" lon="-72.525510000">
<ele>0</ele>
<time>2026-09-04T06:46:19Z</time>
</trkpt>
<trkpt lat="46.321500000" lon="-72.523990000">
<ele>0</ele>
<time>2026-09-04T06:46:20Z</time>
</trkpt>
<trkpt lat="46.321810000" lon="-72.523770000">
<ele>0</ele>
<time>2026-09-04T06:46:21Z</time>
</trkpt>
<trkpt lat="46.322120000" lon="-72.523500000">
<ele>0</ele>
<time>2026-09-04T06:46:22Z</time>
</trkpt>
<trkpt lat="46.322670000" lon="-72.522980000">
<ele>0</ele>
<time>2026-09-04T06:46:23Z</time>
</trkpt>
<trkpt lat="46.323010000" lon="-72.522600000">
<ele>0</ele>
<time>2026-09-04T06:46:24Z</time>
</trkpt>
<trkpt lat="46.323500000" lon="-72.521920000">
<ele>0</ele>
<time>2026-09-04T06:46:25Z</time>
</trkpt>
<trkpt lat="46.324490000" lon="-72.520530000">
<ele>0</ele>
<time>2026-09-04T06:46:26Z</time>
</trkpt>
<trkpt lat="46.324700000" lon="-72.520190000">
<ele>0</ele>
<time>2026-09-04T06:46:27Z</time>
</trkpt>
<trkpt lat="46.324890000" lon="-72.519810000">
<ele>0</ele>
<time>2026-09-04T06:46:28Z</time>
</trkpt>
<trkpt lat="46.325380000" lon="-72.518640000">
<ele>0</ele>
<time>2026-09-04T06:46:29Z</time>
</trkpt>
<trkpt lat="46.325600000" lon="-72.518140000">
<ele>0</ele>
<time>2026-09-04T06:46:30Z</time>
</trkpt>
<trkpt lat="46.325730000" lon="-72.517890000">
<ele>0</ele>
<time>2026-09-04T06:46:31Z</time>
</trkpt>
<trkpt lat="46.325910000" lon="-72.517620000">
<ele>0</ele>
<time>2026-09-04T06:46:32Z</time>
</trkpt>
<trkpt lat="46.326100000" lon="-72.517380000">
<ele>0</ele>
<time>2026-09-04T06:46:33Z</time>
</trkpt>
<trkpt lat="46.326350000" lon="-72.517140000">
<ele>0</ele>
<time>2026-09-04T06:46:34Z</time>
</trkpt>
<trkpt lat="46.327030000" lon="-72.516620000">
<ele>0</ele>
<time>2026-09-04T06:46:35Z</time>
</trkpt>
<trkpt lat="46.327940000" lon="-72.515950000">
<ele>0</ele>
<time>2026-09-04T06:46:36Z</time>
</trkpt>
<trkpt lat="46.328240000" lon="-72.515700000">
<ele>0</ele>
<time>2026-09-04T06:46:37Z</time>
</trkpt>
<trkpt lat="46.328570000" lon="-72.515370000">
<ele>0</ele>
<time>2026-09-04T06:46:38Z</time>
</trkpt>
<trkpt lat="46.328970000" lon="-72.514920000">
<ele>0</ele>
<time>2026-09-04T06:46:39Z</time>
</trkpt>
<trkpt lat="46.329710000" lon="-72.514020000">
<ele>0</ele>
<time>2026-09-04T06:46:40Z</time>
</trkpt>
<trkpt lat="46.330120000" lon="-72.513600000">
<ele>0</ele>
<time>2026-09-04T06:46:41Z</time>
</trkpt>
<trkpt lat="46.330520000" lon="-72.513290000">
<ele>0</ele>
<time>2026-09-04T06:46:42Z</time>
</trkpt>
<trkpt lat="46.330830000" lon="-72.513130000">
<ele>0</ele>
<time>2026-09-04T06:46:43Z</time>
</trkpt>
<trkpt lat="46.331170000" lon="-72.513010000">
<ele>0</ele>
<time>2026-09-04T06:46:44Z</time>
</trkpt>
<trkpt lat="46.331560000" lon="-72.512880000">
<ele>0</ele>
<time>2026-09-04T06:46:45Z</time>
</trkpt>
<trkpt lat="46.331600000" lon="-72.513010000">
<ele>0</ele>
<time>2026-09-04T06:46:46Z</time>
</trkpt>
<trkpt lat="46.331660000" lon="-72.513090000">
<ele>0</ele>
<time>2026-09-04T06:46:47Z</time>
</trkpt>
<trkpt lat="46.331660000" lon="-72.513090000">
<ele>0</ele>
<time>2026-09-04T06:46:48Z</time>
</trkpt>
<trkpt lat="46.331940000" lon="-72.513300000">
<ele>0</ele>
<time>2026-09-04T06:46:49Z</time>
</trkpt>
<trkpt lat="46.332390000" lon="-72.513670000">
<ele>0</ele>
<time>2026-09-04T06:46:50Z</time>
</trkpt>
<trkpt lat="46.333130000" lon="-72.514410000">
<ele>0</ele>
<time>2026-09-04T06:46:51Z</time>
</trkpt>
<trkpt lat="46.333190000" lon="-72.514480000">
<ele>0</ele>
<time>2026-09-04T06:46:52Z</time>
</trkpt>
</trkseg>
</trk>
</gpx>
